<?xml version="1.0" encoding="UTF-8" standalone="no" ?>
<gpx xmlns="http://www.topografix.com/GPX/1/1" xmlns:xsi="http://www.w3.org/2001/XMLSchema-instance" xsi:schemaLocation="http://www.topografix.com/GPX/1/1 http://www.topografix.com/GPX/1/1/gpx.xsd" version="1.1" creator="VisuGPX - https://www.visugpx.com">
  <metadata>
    <name>Parcours Valdorando noir partie de Miribel</name>
    <desc><![CDATA[Un petit loupé au sud a éviter]]></desc>
  </metadata>
  <trk>
    <name><![CDATA[Valdo noire a Miribel]]></name>
    <cmt><![CDATA[Course (1,0 m | 5 s | 100,0 m)]]></cmt>
    <trkseg>
      <trkpt lat="45.42996" lon="5.70128">
        <ele>748.191895</ele>
        <time>2019-05-24T13:09:19.662Z</time>
      </trkpt>
      <trkpt lat="45.43009" lon="5.70125">
        <ele>749.253906</ele>
        <time>2019-05-24T13:09:24.668Z</time>
      </trkpt>
      <trkpt lat="45.43021" lon="5.70124">
        <ele>749.921875</ele>
        <time>2019-05-24T13:09:29.720Z</time>
      </trkpt>
      <trkpt lat="45.43031" lon="5.70122">
        <ele>754.384277</ele>
        <time>2019-05-24T13:09:34.771Z</time>
      </trkpt>
      <trkpt lat="45.43042" lon="5.70121">
        <ele>753.850342</ele>
        <time>2019-05-24T13:09:40.312Z</time>
      </trkpt>
      <trkpt lat="45.43056" lon="5.70124">
        <ele>753.078247</ele>
        <time>2019-05-24T13:09:45.396Z</time>
      </trkpt>
      <trkpt lat="45.43067" lon="5.70125">
        <ele>757.802612</ele>
        <time>2019-05-24T13:09:50.417Z</time>
      </trkpt>
      <trkpt lat="45.43077" lon="5.70123">
        <ele>758.160767</ele>
        <time>2019-05-24T13:09:55.480Z</time>
      </trkpt>
      <trkpt lat="45.43089" lon="5.70118">
        <ele>756.995728</ele>
        <time>2019-05-24T13:10:00.519Z</time>
      </trkpt>
      <trkpt lat="45.43099" lon="5.70109">
        <ele>755.266602</ele>
        <time>2019-05-24T13:10:05.589Z</time>
      </trkpt>
      <trkpt lat="45.43108" lon="5.701">
        <ele>751.683105</ele>
        <time>2019-05-24T13:10:10.631Z</time>
      </trkpt>
      <trkpt lat="45.43115" lon="5.70089">
        <ele>748.153931</ele>
        <time>2019-05-24T13:10:15.675Z</time>
      </trkpt>
      <trkpt lat="45.43126" lon="5.70082">
        <ele>751.380127</ele>
        <time>2019-05-24T13:10:20.722Z</time>
      </trkpt>
      <trkpt lat="45.43136" lon="5.70075">
        <ele>747.457275</ele>
        <time>2019-05-24T13:10:25.803Z</time>
      </trkpt>
      <trkpt lat="45.43149" lon="5.70076">
        <ele>750.941406</ele>
        <time>2019-05-24T13:10:30.850Z</time>
      </trkpt>
      <trkpt lat="45.43161" lon="5.70076">
        <ele>753.791138</ele>
        <time>2019-05-24T13:10:35.883Z</time>
      </trkpt>
      <trkpt lat="45.43172" lon="5.70074">
        <ele>755.871826</ele>
        <time>2019-05-24T13:10:40.916Z</time>
      </trkpt>
      <trkpt lat="45.43182" lon="5.70082">
        <ele>760.47876</ele>
        <time>2019-05-24T13:10:45.935Z</time>
      </trkpt>
      <trkpt lat="45.43193" lon="5.7009">
        <ele>759.272461</ele>
        <time>2019-05-24T13:10:50.966Z</time>
      </trkpt>
      <trkpt lat="45.43203" lon="5.70096">
        <ele>758.306396</ele>
        <time>2019-05-24T13:10:56.012Z</time>
      </trkpt>
      <trkpt lat="45.43215" lon="5.70098">
        <ele>758.087646</ele>
        <time>2019-05-24T13:11:01.056Z</time>
      </trkpt>
      <trkpt lat="45.43226" lon="5.70102">
        <ele>757.582886</ele>
        <time>2019-05-24T13:11:06.100Z</time>
      </trkpt>
      <trkpt lat="45.43238" lon="5.70105">
        <ele>757.025635</ele>
        <time>2019-05-24T13:11:11.146Z</time>
      </trkpt>
      <trkpt lat="45.4325" lon="5.70106">
        <ele>759.897705</ele>
        <time>2019-05-24T13:11:16.195Z</time>
      </trkpt>
      <trkpt lat="45.43255" lon="5.701">
        <ele>761.428955</ele>
        <time>2019-05-24T13:11:21.268Z</time>
      </trkpt>
      <trkpt lat="45.43261" lon="5.70092">
        <ele>762.365723</ele>
        <time>2019-05-24T13:11:26.316Z</time>
      </trkpt>
      <trkpt lat="45.43268" lon="5.70078">
        <ele>763.465698</ele>
        <time>2019-05-24T13:11:31.352Z</time>
      </trkpt>
      <trkpt lat="45.43274" lon="5.70065">
        <ele>766.648926</ele>
        <time>2019-05-24T13:11:36.400Z</time>
      </trkpt>
      <trkpt lat="45.43277" lon="5.70035">
        <ele>768.238892</ele>
        <time>2019-05-24T13:11:41.445Z</time>
      </trkpt>
      <trkpt lat="45.43275" lon="5.70018">
        <ele>767.934814</ele>
        <time>2019-05-24T13:11:46.480Z</time>
      </trkpt>
      <trkpt lat="45.4327" lon="5.7002">
        <ele>769.654297</ele>
        <time>2019-05-24T13:11:51.508Z</time>
      </trkpt>
      <trkpt lat="45.43268" lon="5.70015">
        <ele>769.025879</ele>
        <time>2019-05-24T13:11:56.536Z</time>
      </trkpt>
      <trkpt lat="45.43267" lon="5.70007">
        <ele>768.795898</ele>
        <time>2019-05-24T13:12:01.571Z</time>
      </trkpt>
      <trkpt lat="45.43265" lon="5.69997">
        <ele>770.244873</ele>
        <time>2019-05-24T13:12:06.613Z</time>
      </trkpt>
      <trkpt lat="45.43267" lon="5.69986">
        <ele>770.724609</ele>
        <time>2019-05-24T13:12:11.662Z</time>
      </trkpt>
      <trkpt lat="45.43269" lon="5.69977">
        <ele>768.628418</ele>
        <time>2019-05-24T13:12:16.711Z</time>
      </trkpt>
      <trkpt lat="45.43272" lon="5.69965">
        <ele>770.672607</ele>
        <time>2019-05-24T13:12:21.775Z</time>
      </trkpt>
      <trkpt lat="45.43275" lon="5.69954">
        <ele>772.993652</ele>
        <time>2019-05-24T13:12:26.824Z</time>
      </trkpt>
      <trkpt lat="45.43276" lon="5.69948">
        <ele>776.120117</ele>
        <time>2019-05-24T13:12:34.407Z</time>
      </trkpt>
      <trkpt lat="45.43277" lon="5.6994">
        <ele>775.137085</ele>
        <time>2019-05-24T13:12:39.416Z</time>
      </trkpt>
      <trkpt lat="45.43277" lon="5.69932">
        <ele>776.256226</ele>
        <time>2019-05-24T13:12:44.509Z</time>
      </trkpt>
      <trkpt lat="45.43277" lon="5.69926">
        <ele>777.603027</ele>
        <time>2019-05-24T13:12:49.556Z</time>
      </trkpt>
      <trkpt lat="45.43277" lon="5.69918">
        <ele>778.999023</ele>
        <time>2019-05-24T13:12:54.584Z</time>
      </trkpt>
      <trkpt lat="45.43278" lon="5.69913">
        <ele>780.216553</ele>
        <time>2019-05-24T13:12:59.647Z</time>
      </trkpt>
      <trkpt lat="45.43278" lon="5.69907">
        <ele>783.362671</ele>
        <time>2019-05-24T13:13:04.687Z</time>
      </trkpt>
      <trkpt lat="45.43279" lon="5.69901">
        <ele>782.899292</ele>
        <time>2019-05-24T13:13:09.728Z</time>
      </trkpt>
      <trkpt lat="45.4328" lon="5.69894">
        <ele>783.854858</ele>
        <time>2019-05-24T13:13:14.771Z</time>
      </trkpt>
      <trkpt lat="45.43278" lon="5.69888">
        <ele>785.619019</ele>
        <time>2019-05-24T13:13:19.831Z</time>
      </trkpt>
      <trkpt lat="45.43277" lon="5.69883">
        <ele>786.757568</ele>
        <time>2019-05-24T13:13:24.886Z</time>
      </trkpt>
      <trkpt lat="45.43276" lon="5.69877">
        <ele>788.701172</ele>
        <time>2019-05-24T13:13:29.932Z</time>
      </trkpt>
      <trkpt lat="45.43279" lon="5.69869">
        <ele>790.659668</ele>
        <time>2019-05-24T13:13:34.966Z</time>
      </trkpt>
      <trkpt lat="45.43281" lon="5.69863">
        <ele>792.47583</ele>
        <time>2019-05-24T13:13:40.008Z</time>
      </trkpt>
      <trkpt lat="45.43281" lon="5.69859">
        <ele>792.615723</ele>
        <time>2019-05-24T13:13:50.077Z</time>
      </trkpt>
      <trkpt lat="45.43281" lon="5.69853">
        <ele>794.887451</ele>
        <time>2019-05-24T13:13:55.123Z</time>
      </trkpt>
      <trkpt lat="45.43279" lon="5.69847">
        <ele>797.158203</ele>
        <time>2019-05-24T13:14:00.159Z</time>
      </trkpt>
      <trkpt lat="45.4328" lon="5.69839">
        <ele>797.663208</ele>
        <time>2019-05-24T13:14:05.195Z</time>
      </trkpt>
      <trkpt lat="45.43282" lon="5.6983">
        <ele>796.708984</ele>
        <time>2019-05-24T13:14:10.219Z</time>
      </trkpt>
      <trkpt lat="45.43284" lon="5.69827">
        <ele>798.074219</ele>
        <time>2019-05-24T13:14:15.248Z</time>
      </trkpt>
      <trkpt lat="45.43285" lon="5.69825">
        <ele>798.245483</ele>
        <time>2019-05-24T13:14:21.384Z</time>
      </trkpt>
      <trkpt lat="45.43288" lon="5.69815">
        <ele>799.412964</ele>
        <time>2019-05-24T13:14:26.384Z</time>
      </trkpt>
      <trkpt lat="45.43293" lon="5.69804">
        <ele>797.360107</ele>
        <time>2019-05-24T13:14:31.392Z</time>
      </trkpt>
      <trkpt lat="45.43301" lon="5.698">
        <ele>797.991455</ele>
        <time>2019-05-24T13:14:36.402Z</time>
      </trkpt>
      <trkpt lat="45.43309" lon="5.69807">
        <ele>798.314941</ele>
        <time>2019-05-24T13:14:41.402Z</time>
      </trkpt>
      <trkpt lat="45.43314" lon="5.69813">
        <ele>797.7771</ele>
        <time>2019-05-24T13:14:47.397Z</time>
      </trkpt>
      <trkpt lat="45.43314" lon="5.69815">
        <ele>798.37561</ele>
        <time>2019-05-24T13:14:59.384Z</time>
      </trkpt>
      <trkpt lat="45.43311" lon="5.69812">
        <ele>798.484253</ele>
        <time>2019-05-24T13:15:10.382Z</time>
      </trkpt>
      <trkpt lat="45.43304" lon="5.69808">
        <ele>798.733398</ele>
        <time>2019-05-24T13:15:15.813Z</time>
      </trkpt>
      <trkpt lat="45.43298" lon="5.69801">
        <ele>797.824951</ele>
        <time>2019-05-24T13:15:20.857Z</time>
      </trkpt>
      <trkpt lat="45.43295" lon="5.69791">
        <ele>798.068115</ele>
        <time>2019-05-24T13:15:25.906Z</time>
      </trkpt>
      <trkpt lat="45.43294" lon="5.69781">
        <ele>797.381348</ele>
        <time>2019-05-24T13:15:30.946Z</time>
      </trkpt>
      <trkpt lat="45.43298" lon="5.69772">
        <ele>797.565674</ele>
        <time>2019-05-24T13:15:35.996Z</time>
      </trkpt>
      <trkpt lat="45.43303" lon="5.69764">
        <ele>800.639404</ele>
        <time>2019-05-24T13:15:41.069Z</time>
      </trkpt>
      <trkpt lat="45.43306" lon="5.69756">
        <ele>801.930908</ele>
        <time>2019-05-24T13:15:46.119Z</time>
      </trkpt>
      <trkpt lat="45.43307" lon="5.69749">
        <ele>803.09375</ele>
        <time>2019-05-24T13:15:51.158Z</time>
      </trkpt>
      <trkpt lat="45.43309" lon="5.6974">
        <ele>805.972412</ele>
        <time>2019-05-24T13:15:56.197Z</time>
      </trkpt>
      <trkpt lat="45.43313" lon="5.6973">
        <ele>804.270752</ele>
        <time>2019-05-24T13:16:01.275Z</time>
      </trkpt>
      <trkpt lat="45.43317" lon="5.69722">
        <ele>803.332153</ele>
        <time>2019-05-24T13:16:06.312Z</time>
      </trkpt>
      <trkpt lat="45.4332" lon="5.69717">
        <ele>806.290527</ele>
        <time>2019-05-24T13:16:11.338Z</time>
      </trkpt>
      <trkpt lat="45.43327" lon="5.69709">
        <ele>806.333496</ele>
        <time>2019-05-24T13:16:23.380Z</time>
      </trkpt>
      <trkpt lat="45.43327" lon="5.69701">
        <ele>806.819336</ele>
        <time>2019-05-24T13:16:28.385Z</time>
      </trkpt>
      <trkpt lat="45.43328" lon="5.69695">
        <ele>811.085815</ele>
        <time>2019-05-24T13:16:33.392Z</time>
      </trkpt>
      <trkpt lat="45.43328" lon="5.69688">
        <ele>811.0979</ele>
        <time>2019-05-24T13:16:38.392Z</time>
      </trkpt>
      <trkpt lat="45.43327" lon="5.69683">
        <ele>811.62207</ele>
        <time>2019-05-24T13:16:43.402Z</time>
      </trkpt>
      <trkpt lat="45.43325" lon="5.69677">
        <ele>814.469727</ele>
        <time>2019-05-24T13:16:49.269Z</time>
      </trkpt>
      <trkpt lat="45.43325" lon="5.6967">
        <ele>812.560547</ele>
        <time>2019-05-24T13:17:01.381Z</time>
      </trkpt>
      <trkpt lat="45.43327" lon="5.69662">
        <ele>813.020264</ele>
        <time>2019-05-24T13:17:07.379Z</time>
      </trkpt>
      <trkpt lat="45.43328" lon="5.69653">
        <ele>812.883545</ele>
        <time>2019-05-24T13:17:12.393Z</time>
      </trkpt>
      <trkpt lat="45.43328" lon="5.69647">
        <ele>814.764404</ele>
        <time>2019-05-24T13:17:19.639Z</time>
      </trkpt>
      <trkpt lat="45.43329" lon="5.69641">
        <ele>818.443726</ele>
        <time>2019-05-24T13:17:28.377Z</time>
      </trkpt>
      <trkpt lat="45.43326" lon="5.69632">
        <ele>818.784912</ele>
        <time>2019-05-24T13:17:33.383Z</time>
      </trkpt>
      <trkpt lat="45.43325" lon="5.69623">
        <ele>821.977539</ele>
        <time>2019-05-24T13:17:39.396Z</time>
      </trkpt>
      <trkpt lat="45.43324" lon="5.69608">
        <ele>823.994141</ele>
        <time>2019-05-24T13:17:44.928Z</time>
      </trkpt>
      <trkpt lat="45.43322" lon="5.69599">
        <ele>824.329712</ele>
        <time>2019-05-24T13:17:49.964Z</time>
      </trkpt>
      <trkpt lat="45.43321" lon="5.69586">
        <ele>824.131348</ele>
        <time>2019-05-24T13:17:55.006Z</time>
      </trkpt>
      <trkpt lat="45.43321" lon="5.69578">
        <ele>826.186157</ele>
        <time>2019-05-24T13:18:00.042Z</time>
      </trkpt>
      <trkpt lat="45.4332" lon="5.69569">
        <ele>828.077271</ele>
        <time>2019-05-24T13:18:05.084Z</time>
      </trkpt>
      <trkpt lat="45.43318" lon="5.69562">
        <ele>829.452393</ele>
        <time>2019-05-24T13:18:11.377Z</time>
      </trkpt>
      <trkpt lat="45.43316" lon="5.69554">
        <ele>830.156006</ele>
        <time>2019-05-24T13:18:16.401Z</time>
      </trkpt>
      <trkpt lat="45.43312" lon="5.69548">
        <ele>829.11377</ele>
        <time>2019-05-24T13:18:22.775Z</time>
      </trkpt>
      <trkpt lat="45.43309" lon="5.69544">
        <ele>830.860352</ele>
        <time>2019-05-24T13:18:27.820Z</time>
      </trkpt>
      <trkpt lat="45.43308" lon="5.6954">
        <ele>831.975098</ele>
        <time>2019-05-24T13:18:34.381Z</time>
      </trkpt>
      <trkpt lat="45.43307" lon="5.69532">
        <ele>832.204956</ele>
        <time>2019-05-24T13:18:39.381Z</time>
      </trkpt>
      <trkpt lat="45.43302" lon="5.69526">
        <ele>835.380615</ele>
        <time>2019-05-24T13:18:44.398Z</time>
      </trkpt>
      <trkpt lat="45.43301" lon="5.69521">
        <ele>832.867676</ele>
        <time>2019-05-24T13:18:49.398Z</time>
      </trkpt>
      <trkpt lat="45.433" lon="5.69514">
        <ele>832.005859</ele>
        <time>2019-05-24T13:18:54.398Z</time>
      </trkpt>
      <trkpt lat="45.43299" lon="5.69508">
        <ele>831.318115</ele>
        <time>2019-05-24T13:19:06.387Z</time>
      </trkpt>
      <trkpt lat="45.43298" lon="5.69501">
        <ele>836.472534</ele>
        <time>2019-05-24T13:19:11.391Z</time>
      </trkpt>
      <trkpt lat="45.43298" lon="5.69496">
        <ele>836.161255</ele>
        <time>2019-05-24T13:19:16.395Z</time>
      </trkpt>
      <trkpt lat="45.43299" lon="5.69492">
        <ele>837.561523</ele>
        <time>2019-05-24T13:19:22.399Z</time>
      </trkpt>
      <trkpt lat="45.433" lon="5.69484">
        <ele>837.425171</ele>
        <time>2019-05-24T13:19:28.543Z</time>
      </trkpt>
      <trkpt lat="45.43301" lon="5.69478">
        <ele>841.247314</ele>
        <time>2019-05-24T13:19:33.588Z</time>
      </trkpt>
      <trkpt lat="45.43305" lon="5.69472">
        <ele>842.761475</ele>
        <time>2019-05-24T13:19:38.628Z</time>
      </trkpt>
      <trkpt lat="45.4331" lon="5.69468">
        <ele>841.768066</ele>
        <time>2019-05-24T13:19:43.686Z</time>
      </trkpt>
      <trkpt lat="45.43312" lon="5.69465">
        <ele>841.72998</ele>
        <time>2019-05-24T13:19:48.936Z</time>
      </trkpt>
      <trkpt lat="45.43315" lon="5.69462">
        <ele>844.027344</ele>
        <time>2019-05-24T13:19:54.411Z</time>
      </trkpt>
      <trkpt lat="45.43318" lon="5.69457">
        <ele>844.140381</ele>
        <time>2019-05-24T13:19:59.411Z</time>
      </trkpt>
      <trkpt lat="45.43323" lon="5.69454">
        <ele>844.681885</ele>
        <time>2019-05-24T13:20:04.418Z</time>
      </trkpt>
      <trkpt lat="45.43327" lon="5.69452">
        <ele>844.695435</ele>
        <time>2019-05-24T13:20:19.404Z</time>
      </trkpt>
      <trkpt lat="45.43332" lon="5.69449">
        <ele>845.567627</ele>
        <time>2019-05-24T13:20:24.404Z</time>
      </trkpt>
      <trkpt lat="45.43336" lon="5.69441">
        <ele>845.823853</ele>
        <time>2019-05-24T13:20:29.404Z</time>
      </trkpt>
      <trkpt lat="45.4334" lon="5.69433">
        <ele>846.148926</ele>
        <time>2019-05-24T13:20:34.404Z</time>
      </trkpt>
      <trkpt lat="45.43345" lon="5.69423">
        <ele>848.315918</ele>
        <time>2019-05-24T13:20:40.403Z</time>
      </trkpt>
      <trkpt lat="45.43347" lon="5.69414">
        <ele>848.045044</ele>
        <time>2019-05-24T13:20:45.403Z</time>
      </trkpt>
      <trkpt lat="45.43347" lon="5.69403">
        <ele>848.074219</ele>
        <time>2019-05-24T13:20:51.394Z</time>
      </trkpt>
      <trkpt lat="45.43348" lon="5.69396">
        <ele>848.624023</ele>
        <time>2019-05-24T13:20:56.400Z</time>
      </trkpt>
      <trkpt lat="45.43351" lon="5.69379">
        <ele>847.131958</ele>
        <time>2019-05-24T13:21:02.387Z</time>
      </trkpt>
      <trkpt lat="45.43352" lon="5.69367">
        <ele>852.21814</ele>
        <time>2019-05-24T13:21:22.420Z</time>
      </trkpt>
      <trkpt lat="45.43347" lon="5.69373">
        <ele>851.943726</ele>
        <time>2019-05-24T13:21:27.466Z</time>
      </trkpt>
      <trkpt lat="45.43343" lon="5.6938">
        <ele>851.090332</ele>
        <time>2019-05-24T13:21:32.514Z</time>
      </trkpt>
      <trkpt lat="45.43335" lon="5.69386">
        <ele>851.54541</ele>
        <time>2019-05-24T13:21:37.554Z</time>
      </trkpt>
      <trkpt lat="45.43325" lon="5.69384">
        <ele>848.82959</ele>
        <time>2019-05-24T13:21:42.596Z</time>
      </trkpt>
      <trkpt lat="45.4331" lon="5.69379">
        <ele>847.081787</ele>
        <time>2019-05-24T13:21:47.691Z</time>
      </trkpt>
      <trkpt lat="45.43286" lon="5.69371">
        <ele>848.450684</ele>
        <time>2019-05-24T13:21:52.864Z</time>
      </trkpt>
      <trkpt lat="45.43274" lon="5.69371">
        <ele>845.544678</ele>
        <time>2019-05-24T13:21:57.929Z</time>
      </trkpt>
      <trkpt lat="45.4325" lon="5.69365">
        <ele>845.290527</ele>
        <time>2019-05-24T13:22:02.970Z</time>
      </trkpt>
      <trkpt lat="45.43225" lon="5.69363">
        <ele>843.230957</ele>
        <time>2019-05-24T13:22:08.016Z</time>
      </trkpt>
      <trkpt lat="45.4321" lon="5.69363">
        <ele>844.382568</ele>
        <time>2019-05-24T13:22:13.069Z</time>
      </trkpt>
      <trkpt lat="45.43192" lon="5.69363">
        <ele>844.657349</ele>
        <time>2019-05-24T13:22:18.129Z</time>
      </trkpt>
      <trkpt lat="45.43179" lon="5.69362">
        <ele>845.229004</ele>
        <time>2019-05-24T13:22:23.175Z</time>
      </trkpt>
      <trkpt lat="45.43179" lon="5.69354">
        <ele>846.350586</ele>
        <time>2019-05-24T13:22:28.217Z</time>
      </trkpt>
      <trkpt lat="45.43184" lon="5.69339">
        <ele>848.082031</ele>
        <time>2019-05-24T13:22:33.250Z</time>
      </trkpt>
      <trkpt lat="45.43186" lon="5.69324">
        <ele>851.570801</ele>
        <time>2019-05-24T13:22:38.285Z</time>
      </trkpt>
      <trkpt lat="45.43185" lon="5.69311">
        <ele>850.670654</ele>
        <time>2019-05-24T13:22:43.316Z</time>
      </trkpt>
      <trkpt lat="45.43181" lon="5.69298">
        <ele>849.182129</ele>
        <time>2019-05-24T13:22:48.363Z</time>
      </trkpt>
      <trkpt lat="45.43178" lon="5.69278">
        <ele>851.782959</ele>
        <time>2019-05-24T13:22:53.412Z</time>
      </trkpt>
      <trkpt lat="45.43175" lon="5.69256">
        <ele>852.672852</ele>
        <time>2019-05-24T13:22:58.627Z</time>
      </trkpt>
      <trkpt lat="45.43175" lon="5.69238">
        <ele>850.366455</ele>
        <time>2019-05-24T13:23:03.690Z</time>
      </trkpt>
      <trkpt lat="45.43178" lon="5.69219">
        <ele>850.711182</ele>
        <time>2019-05-24T13:23:08.729Z</time>
      </trkpt>
      <trkpt lat="45.43175" lon="5.69201">
        <ele>851.556519</ele>
        <time>2019-05-24T13:23:13.785Z</time>
      </trkpt>
      <trkpt lat="45.4317" lon="5.69186">
        <ele>848.414551</ele>
        <time>2019-05-24T13:23:18.817Z</time>
      </trkpt>
      <trkpt lat="45.43164" lon="5.69164">
        <ele>845.468994</ele>
        <time>2019-05-24T13:23:23.848Z</time>
      </trkpt>
      <trkpt lat="45.43158" lon="5.6915">
        <ele>847.658936</ele>
        <time>2019-05-24T13:23:28.893Z</time>
      </trkpt>
      <trkpt lat="45.43155" lon="5.69127">
        <ele>846.832275</ele>
        <time>2019-05-24T13:23:33.936Z</time>
      </trkpt>
      <trkpt lat="45.4315" lon="5.69106">
        <ele>846.506348</ele>
        <time>2019-05-24T13:23:38.969Z</time>
      </trkpt>
      <trkpt lat="45.4314" lon="5.69095">
        <ele>849.318359</ele>
        <time>2019-05-24T13:23:44.012Z</time>
      </trkpt>
      <trkpt lat="45.43147" lon="5.6908">
        <ele>850.582764</ele>
        <time>2019-05-24T13:23:49.065Z</time>
      </trkpt>
      <trkpt lat="45.43154" lon="5.69067">
        <ele>850.186035</ele>
        <time>2019-05-24T13:23:54.137Z</time>
      </trkpt>
      <trkpt lat="45.43161" lon="5.69056">
        <ele>851.233887</ele>
        <time>2019-05-24T13:23:59.316Z</time>
      </trkpt>
      <trkpt lat="45.43162" lon="5.6904">
        <ele>850.939697</ele>
        <time>2019-05-24T13:24:04.372Z</time>
      </trkpt>
      <trkpt lat="45.43159" lon="5.6902">
        <ele>851.747192</ele>
        <time>2019-05-24T13:24:09.400Z</time>
      </trkpt>
      <trkpt lat="45.43158" lon="5.68998">
        <ele>851.267822</ele>
        <time>2019-05-24T13:24:14.443Z</time>
      </trkpt>
      <trkpt lat="45.43154" lon="5.6898">
        <ele>849.149902</ele>
        <time>2019-05-24T13:24:19.482Z</time>
      </trkpt>
      <trkpt lat="45.43145" lon="5.68958">
        <ele>847.969482</ele>
        <time>2019-05-24T13:24:24.532Z</time>
      </trkpt>
      <trkpt lat="45.43144" lon="5.68933">
        <ele>851.592285</ele>
        <time>2019-05-24T13:24:29.578Z</time>
      </trkpt>
      <trkpt lat="45.43137" lon="5.68916">
        <ele>851.591553</ele>
        <time>2019-05-24T13:24:34.631Z</time>
      </trkpt>
      <trkpt lat="45.4313" lon="5.68902">
        <ele>854.406006</ele>
        <time>2019-05-24T13:24:39.680Z</time>
      </trkpt>
      <trkpt lat="45.43129" lon="5.68892">
        <ele>854.025879</ele>
        <time>2019-05-24T13:24:44.727Z</time>
      </trkpt>
      <trkpt lat="45.43128" lon="5.68883">
        <ele>854.963257</ele>
        <time>2019-05-24T13:24:49.772Z</time>
      </trkpt>
      <trkpt lat="45.43125" lon="5.68875">
        <ele>853.508057</ele>
        <time>2019-05-24T13:24:54.803Z</time>
      </trkpt>
      <trkpt lat="45.43119" lon="5.6886">
        <ele>854.646362</ele>
        <time>2019-05-24T13:24:59.896Z</time>
      </trkpt>
      <trkpt lat="45.43114" lon="5.6884">
        <ele>854.056641</ele>
        <time>2019-05-24T13:25:05.013Z</time>
      </trkpt>
      <trkpt lat="45.43108" lon="5.68818">
        <ele>854.171509</ele>
        <time>2019-05-24T13:25:10.066Z</time>
      </trkpt>
      <trkpt lat="45.43108" lon="5.68795">
        <ele>855.708252</ele>
        <time>2019-05-24T13:25:15.113Z</time>
      </trkpt>
      <trkpt lat="45.43106" lon="5.68777">
        <ele>857.179932</ele>
        <time>2019-05-24T13:25:20.162Z</time>
      </trkpt>
      <trkpt lat="45.431" lon="5.68777">
        <ele>855.828491</ele>
        <time>2019-05-24T13:25:25.214Z</time>
      </trkpt>
      <trkpt lat="45.43102" lon="5.68786">
        <ele>855.430176</ele>
        <time>2019-05-24T13:25:30.388Z</time>
      </trkpt>
      <trkpt lat="45.43096" lon="5.68782">
        <ele>855.48291</ele>
        <time>2019-05-24T13:25:35.473Z</time>
      </trkpt>
      <trkpt lat="45.43085" lon="5.68776">
        <ele>856.30481</ele>
        <time>2019-05-24T13:25:40.503Z</time>
      </trkpt>
      <trkpt lat="45.43076" lon="5.68768">
        <ele>857.635986</ele>
        <time>2019-05-24T13:25:45.537Z</time>
      </trkpt>
      <trkpt lat="45.43065" lon="5.68758">
        <ele>859.123169</ele>
        <time>2019-05-24T13:25:50.592Z</time>
      </trkpt>
      <trkpt lat="45.43047" lon="5.68744">
        <ele>855.921021</ele>
        <time>2019-05-24T13:25:55.631Z</time>
      </trkpt>
      <trkpt lat="45.4302" lon="5.68725">
        <ele>856.875</ele>
        <time>2019-05-24T13:26:00.675Z</time>
      </trkpt>
      <trkpt lat="45.42995" lon="5.687">
        <ele>859.094604</ele>
        <time>2019-05-24T13:26:05.889Z</time>
      </trkpt>
      <trkpt lat="45.42987" lon="5.68678">
        <ele>860.30127</ele>
        <time>2019-05-24T13:26:10.961Z</time>
      </trkpt>
      <trkpt lat="45.42984" lon="5.68661">
        <ele>861.755127</ele>
        <time>2019-05-24T13:26:16.004Z</time>
      </trkpt>
      <trkpt lat="45.42981" lon="5.68645">
        <ele>863.075684</ele>
        <time>2019-05-24T13:26:21.043Z</time>
      </trkpt>
      <trkpt lat="45.42979" lon="5.68631">
        <ele>864.161987</ele>
        <time>2019-05-24T13:26:26.067Z</time>
      </trkpt>
      <trkpt lat="45.42978" lon="5.68616">
        <ele>865.194336</ele>
        <time>2019-05-24T13:26:31.102Z</time>
      </trkpt>
      <trkpt lat="45.4298" lon="5.686">
        <ele>866.149536</ele>
        <time>2019-05-24T13:26:36.153Z</time>
      </trkpt>
      <trkpt lat="45.42982" lon="5.68586">
        <ele>866.957764</ele>
        <time>2019-05-24T13:26:41.207Z</time>
      </trkpt>
      <trkpt lat="45.42983" lon="5.68573">
        <ele>868.615479</ele>
        <time>2019-05-24T13:26:46.251Z</time>
      </trkpt>
      <trkpt lat="45.42986" lon="5.68562">
        <ele>868.563721</ele>
        <time>2019-05-24T13:26:51.298Z</time>
      </trkpt>
      <trkpt lat="45.4299" lon="5.6855">
        <ele>869.13501</ele>
        <time>2019-05-24T13:26:56.354Z</time>
      </trkpt>
      <trkpt lat="45.42992" lon="5.68543">
        <ele>867.518799</ele>
        <time>2019-05-24T13:27:01.397Z</time>
      </trkpt>
      <trkpt lat="45.42993" lon="5.68536">
        <ele>869.40625</ele>
        <time>2019-05-24T13:27:06.461Z</time>
      </trkpt>
      <trkpt lat="45.42994" lon="5.68529">
        <ele>873.233643</ele>
        <time>2019-05-24T13:27:11.710Z</time>
      </trkpt>
      <trkpt lat="45.42994" lon="5.68524">
        <ele>872.651611</ele>
        <time>2019-05-24T13:27:16.796Z</time>
      </trkpt>
      <trkpt lat="45.42994" lon="5.68522">
        <ele>873.192871</ele>
        <time>2019-05-24T13:27:28.385Z</time>
      </trkpt>
      <trkpt lat="45.42994" lon="5.68513">
        <ele>873.077637</ele>
        <time>2019-05-24T13:27:33.385Z</time>
      </trkpt>
      <trkpt lat="45.42994" lon="5.68504">
        <ele>875.023315</ele>
        <time>2019-05-24T13:27:38.391Z</time>
      </trkpt>
      <trkpt lat="45.42992" lon="5.68494">
        <ele>874.878784</ele>
        <time>2019-05-24T13:27:43.391Z</time>
      </trkpt>
      <trkpt lat="45.42988" lon="5.68483">
        <ele>876.026123</ele>
        <time>2019-05-24T13:27:49.388Z</time>
      </trkpt>
      <trkpt lat="45.42985" lon="5.68474">
        <ele>877.012695</ele>
        <time>2019-05-24T13:27:54.388Z</time>
      </trkpt>
      <trkpt lat="45.42981" lon="5.68465">
        <ele>879.407715</ele>
        <time>2019-05-24T13:27:59.392Z</time>
      </trkpt>
      <trkpt lat="45.42978" lon="5.68457">
        <ele>880.283203</ele>
        <time>2019-05-24T13:28:04.392Z</time>
      </trkpt>
      <trkpt lat="45.42974" lon="5.68447">
        <ele>882.854248</ele>
        <time>2019-05-24T13:28:09.392Z</time>
      </trkpt>
      <trkpt lat="45.42973" lon="5.68444">
        <ele>883.114258</ele>
        <time>2019-05-24T13:28:14.393Z</time>
      </trkpt>
      <trkpt lat="45.42973" lon="5.68438">
        <ele>881.393799</ele>
        <time>2019-05-24T13:28:20.054Z</time>
      </trkpt>
      <trkpt lat="45.42973" lon="5.6843">
        <ele>880.101807</ele>
        <time>2019-05-24T13:28:25.103Z</time>
      </trkpt>
      <trkpt lat="45.42973" lon="5.68422">
        <ele>881.705444</ele>
        <time>2019-05-24T13:28:30.161Z</time>
      </trkpt>
      <trkpt lat="45.42973" lon="5.68413">
        <ele>883.725342</ele>
        <time>2019-05-24T13:28:35.197Z</time>
      </trkpt>
      <trkpt lat="45.42974" lon="5.68405">
        <ele>886.929932</ele>
        <time>2019-05-24T13:28:40.241Z</time>
      </trkpt>
      <trkpt lat="45.42976" lon="5.684">
        <ele>889.253052</ele>
        <time>2019-05-24T13:28:45.278Z</time>
      </trkpt>
      <trkpt lat="45.4298" lon="5.68393">
        <ele>887.799561</ele>
        <time>2019-05-24T13:28:50.331Z</time>
      </trkpt>
      <trkpt lat="45.42982" lon="5.68388">
        <ele>892.411987</ele>
        <time>2019-05-24T13:28:55.375Z</time>
      </trkpt>
      <trkpt lat="45.42984" lon="5.68385">
        <ele>891.360596</ele>
        <time>2019-05-24T13:29:02.935Z</time>
      </trkpt>
      <trkpt lat="45.42988" lon="5.68377">
        <ele>891.116821</ele>
        <time>2019-05-24T13:29:07.981Z</time>
      </trkpt>
      <trkpt lat="45.4299" lon="5.68367">
        <ele>891.027344</ele>
        <time>2019-05-24T13:29:13.063Z</time>
      </trkpt>
      <trkpt lat="45.42995" lon="5.68358">
        <ele>890.48877</ele>
        <time>2019-05-24T13:29:18.283Z</time>
      </trkpt>
      <trkpt lat="45.42999" lon="5.68349">
        <ele>893.469727</ele>
        <time>2019-05-24T13:29:23.357Z</time>
      </trkpt>
      <trkpt lat="45.43006" lon="5.68338">
        <ele>892.749756</ele>
        <time>2019-05-24T13:29:28.401Z</time>
      </trkpt>
      <trkpt lat="45.43008" lon="5.68333">
        <ele>893.743896</ele>
        <time>2019-05-24T13:29:35.984Z</time>
      </trkpt>
      <trkpt lat="45.43011" lon="5.6833">
        <ele>899.010742</ele>
        <time>2019-05-24T13:29:41.035Z</time>
      </trkpt>
      <trkpt lat="45.43015" lon="5.68326">
        <ele>899.833984</ele>
        <time>2019-05-24T13:29:46.088Z</time>
      </trkpt>
      <trkpt lat="45.43018" lon="5.68319">
        <ele>901.138916</ele>
        <time>2019-05-24T13:29:51.132Z</time>
      </trkpt>
      <trkpt lat="45.4302" lon="5.68314">
        <ele>905.502686</ele>
        <time>2019-05-24T13:29:56.186Z</time>
      </trkpt>
      <trkpt lat="45.43019" lon="5.6831">
        <ele>906.380615</ele>
        <time>2019-05-24T13:30:02.392Z</time>
      </trkpt>
      <trkpt lat="45.4302" lon="5.68304">
        <ele>906.028198</ele>
        <time>2019-05-24T13:30:07.392Z</time>
      </trkpt>
      <trkpt lat="45.43022" lon="5.68297">
        <ele>907.320068</ele>
        <time>2019-05-24T13:30:12.392Z</time>
      </trkpt>
      <trkpt lat="45.43024" lon="5.68288">
        <ele>907.485352</ele>
        <time>2019-05-24T13:30:18.394Z</time>
      </trkpt>
      <trkpt lat="45.43026" lon="5.6828">
        <ele>908.387085</ele>
        <time>2019-05-24T13:30:24.203Z</time>
      </trkpt>
      <trkpt lat="45.43029" lon="5.68271">
        <ele>907.011841</ele>
        <time>2019-05-24T13:30:29.252Z</time>
      </trkpt>
      <trkpt lat="45.43032" lon="5.6826">
        <ele>905.59314</ele>
        <time>2019-05-24T13:30:34.304Z</time>
      </trkpt>
      <trkpt lat="45.43033" lon="5.68249">
        <ele>905.615356</ele>
        <time>2019-05-24T13:30:39.344Z</time>
      </trkpt>
      <trkpt lat="45.43028" lon="5.68253">
        <ele>911.724121</ele>
        <time>2019-05-24T13:30:54.389Z</time>
      </trkpt>
      <trkpt lat="45.43029" lon="5.68244">
        <ele>907.549561</ele>
        <time>2019-05-24T13:30:59.389Z</time>
      </trkpt>
      <trkpt lat="45.43033" lon="5.68236">
        <ele>910.496338</ele>
        <time>2019-05-24T13:31:04.397Z</time>
      </trkpt>
      <trkpt lat="45.43035" lon="5.68227">
        <ele>908.00415</ele>
        <time>2019-05-24T13:31:09.566Z</time>
      </trkpt>
      <trkpt lat="45.43036" lon="5.68217">
        <ele>909.950684</ele>
        <time>2019-05-24T13:31:14.608Z</time>
      </trkpt>
      <trkpt lat="45.43039" lon="5.68205">
        <ele>909.472046</ele>
        <time>2019-05-24T13:31:19.651Z</time>
      </trkpt>
      <trkpt lat="45.4304" lon="5.68195">
        <ele>911.422363</ele>
        <time>2019-05-24T13:31:24.851Z</time>
      </trkpt>
      <trkpt lat="45.4304" lon="5.68185">
        <ele>913.510864</ele>
        <time>2019-05-24T13:31:29.919Z</time>
      </trkpt>
      <trkpt lat="45.43041" lon="5.68176">
        <ele>914.310791</ele>
        <time>2019-05-24T13:31:34.961Z</time>
      </trkpt>
      <trkpt lat="45.43041" lon="5.68167">
        <ele>914.906494</ele>
        <time>2019-05-24T13:31:40.011Z</time>
      </trkpt>
      <trkpt lat="45.43041" lon="5.68157">
        <ele>914.715576</ele>
        <time>2019-05-24T13:31:45.051Z</time>
      </trkpt>
      <trkpt lat="45.43041" lon="5.68146">
        <ele>917.532227</ele>
        <time>2019-05-24T13:31:50.082Z</time>
      </trkpt>
      <trkpt lat="45.43041" lon="5.68136">
        <ele>919.819702</ele>
        <time>2019-05-24T13:31:55.121Z</time>
      </trkpt>
      <trkpt lat="45.43043" lon="5.68125">
        <ele>917.003174</ele>
        <time>2019-05-24T13:32:00.169Z</time>
      </trkpt>
      <trkpt lat="45.43043" lon="5.68115">
        <ele>917.48877</ele>
        <time>2019-05-24T13:32:05.218Z</time>
      </trkpt>
      <trkpt lat="45.43043" lon="5.68107">
        <ele>916.941528</ele>
        <time>2019-05-24T13:32:10.266Z</time>
      </trkpt>
      <trkpt lat="45.43041" lon="5.68097">
        <ele>915.010986</ele>
        <time>2019-05-24T13:32:15.318Z</time>
      </trkpt>
      <trkpt lat="45.43033" lon="5.68093">
        <ele>915.760742</ele>
        <time>2019-05-24T13:32:20.388Z</time>
      </trkpt>
      <trkpt lat="45.43023" lon="5.68092">
        <ele>915.391113</ele>
        <time>2019-05-24T13:32:25.389Z</time>
      </trkpt>
      <trkpt lat="45.43011" lon="5.68091">
        <ele>916.596924</ele>
        <time>2019-05-24T13:32:30.389Z</time>
      </trkpt>
      <trkpt lat="45.43" lon="5.68097">
        <ele>918.380737</ele>
        <time>2019-05-24T13:32:35.392Z</time>
      </trkpt>
      <trkpt lat="45.42988" lon="5.68106">
        <ele>916.684937</ele>
        <time>2019-05-24T13:32:40.392Z</time>
      </trkpt>
      <trkpt lat="45.42975" lon="5.68106">
        <ele>919.3927</ele>
        <time>2019-05-24T13:32:45.392Z</time>
      </trkpt>
      <trkpt lat="45.42962" lon="5.68101">
        <ele>918.458984</ele>
        <time>2019-05-24T13:32:50.392Z</time>
      </trkpt>
      <trkpt lat="45.4295" lon="5.68098">
        <ele>916.770996</ele>
        <time>2019-05-24T13:32:55.392Z</time>
      </trkpt>
      <trkpt lat="45.42939" lon="5.68101">
        <ele>915.908081</ele>
        <time>2019-05-24T13:33:00.392Z</time>
      </trkpt>
      <trkpt lat="45.42931" lon="5.68095">
        <ele>919.007935</ele>
        <time>2019-05-24T13:33:05.402Z</time>
      </trkpt>
      <trkpt lat="45.42924" lon="5.68089">
        <ele>920.716309</ele>
        <time>2019-05-24T13:33:11.039Z</time>
      </trkpt>
      <trkpt lat="45.42919" lon="5.68088">
        <ele>924.080322</ele>
        <time>2019-05-24T13:33:16.078Z</time>
      </trkpt>
      <trkpt lat="45.42914" lon="5.68081">
        <ele>924.67627</ele>
        <time>2019-05-24T13:33:21.138Z</time>
      </trkpt>
      <trkpt lat="45.42911" lon="5.68072">
        <ele>924.583252</ele>
        <time>2019-05-24T13:33:38.383Z</time>
      </trkpt>
      <trkpt lat="45.42907" lon="5.68066">
        <ele>926.122314</ele>
        <time>2019-05-24T13:33:43.393Z</time>
      </trkpt>
      <trkpt lat="45.42904" lon="5.68062">
        <ele>929.126953</ele>
        <time>2019-05-24T13:33:48.941Z</time>
      </trkpt>
      <trkpt lat="45.429" lon="5.68053">
        <ele>931.350098</ele>
        <time>2019-05-24T13:33:54.001Z</time>
      </trkpt>
      <trkpt lat="45.42898" lon="5.68044">
        <ele>931.026123</ele>
        <time>2019-05-24T13:33:59.031Z</time>
      </trkpt>
      <trkpt lat="45.42897" lon="5.68034">
        <ele>932.310791</ele>
        <time>2019-05-24T13:34:04.079Z</time>
      </trkpt>
      <trkpt lat="45.42894" lon="5.68026">
        <ele>934.219727</ele>
        <time>2019-05-24T13:34:09.148Z</time>
      </trkpt>
      <trkpt lat="45.42889" lon="5.68021">
        <ele>937.912109</ele>
        <time>2019-05-24T13:34:17.391Z</time>
      </trkpt>
      <trkpt lat="45.42889" lon="5.68014">
        <ele>936.700195</ele>
        <time>2019-05-24T13:34:22.391Z</time>
      </trkpt>
      <trkpt lat="45.42887" lon="5.68005">
        <ele>936.733154</ele>
        <time>2019-05-24T13:34:27.391Z</time>
      </trkpt>
      <trkpt lat="45.42883" lon="5.67996">
        <ele>937.670166</ele>
        <time>2019-05-24T13:34:32.391Z</time>
      </trkpt>
      <trkpt lat="45.42882" lon="5.67994">
        <ele>938.345703</ele>
        <time>2019-05-24T13:34:54.582Z</time>
      </trkpt>
      <trkpt lat="45.42877" lon="5.67989">
        <ele>938.974121</ele>
        <time>2019-05-24T13:34:59.647Z</time>
      </trkpt>
      <trkpt lat="45.42872" lon="5.67982">
        <ele>937.374512</ele>
        <time>2019-05-24T13:35:04.699Z</time>
      </trkpt>
      <trkpt lat="45.42868" lon="5.67974">
        <ele>936.963623</ele>
        <time>2019-05-24T13:35:09.775Z</time>
      </trkpt>
      <trkpt lat="45.4286" lon="5.67969">
        <ele>938.606689</ele>
        <time>2019-05-24T13:35:14.825Z</time>
      </trkpt>
      <trkpt lat="45.42852" lon="5.67965">
        <ele>939.392944</ele>
        <time>2019-05-24T13:35:19.863Z</time>
      </trkpt>
      <trkpt lat="45.42843" lon="5.67954">
        <ele>936.666016</ele>
        <time>2019-05-24T13:35:24.912Z</time>
      </trkpt>
      <trkpt lat="45.42832" lon="5.67949">
        <ele>936.006348</ele>
        <time>2019-05-24T13:35:29.950Z</time>
      </trkpt>
      <trkpt lat="45.4282" lon="5.67943">
        <ele>937.005127</ele>
        <time>2019-05-24T13:35:34.998Z</time>
      </trkpt>
      <trkpt lat="45.42809" lon="5.67937">
        <ele>938.071533</ele>
        <time>2019-05-24T13:35:40.051Z</time>
      </trkpt>
      <trkpt lat="45.42796" lon="5.67936">
        <ele>940.601563</ele>
        <time>2019-05-24T13:35:45.090Z</time>
      </trkpt>
      <trkpt lat="45.42782" lon="5.67925">
        <ele>942.006348</ele>
        <time>2019-05-24T13:35:50.128Z</time>
      </trkpt>
      <trkpt lat="45.42771" lon="5.67917">
        <ele>940.577393</ele>
        <time>2019-05-24T13:35:55.176Z</time>
      </trkpt>
      <trkpt lat="45.42767" lon="5.67912">
        <ele>938.712769</ele>
        <time>2019-05-24T13:36:00.232Z</time>
      </trkpt>
      <trkpt lat="45.42756" lon="5.67912">
        <ele>935.101074</ele>
        <time>2019-05-24T13:36:05.299Z</time>
      </trkpt>
      <trkpt lat="45.42746" lon="5.67917">
        <ele>932.962646</ele>
        <time>2019-05-24T13:36:10.342Z</time>
      </trkpt>
      <trkpt lat="45.42728" lon="5.67915">
        <ele>933.814209</ele>
        <time>2019-05-24T13:36:15.392Z</time>
      </trkpt>
      <trkpt lat="45.42709" lon="5.679">
        <ele>930.981201</ele>
        <time>2019-05-24T13:36:20.393Z</time>
      </trkpt>
      <trkpt lat="45.42697" lon="5.67892">
        <ele>933.009521</ele>
        <time>2019-05-24T13:36:25.393Z</time>
      </trkpt>
      <trkpt lat="45.42689" lon="5.67888">
        <ele>934.972046</ele>
        <time>2019-05-24T13:36:30.393Z</time>
      </trkpt>
      <trkpt lat="45.4268" lon="5.67886">
        <ele>937.299438</ele>
        <time>2019-05-24T13:36:35.393Z</time>
      </trkpt>
      <trkpt lat="45.42677" lon="5.67885">
        <ele>940.535278</ele>
        <time>2019-05-24T13:36:48.369Z</time>
      </trkpt>
      <trkpt lat="45.42676" lon="5.67888">
        <ele>948.069092</ele>
        <time>2019-05-24T13:39:26.384Z</time>
      </trkpt>
      <trkpt lat="45.42667" lon="5.67889">
        <ele>944.056885</ele>
        <time>2019-05-24T13:39:31.393Z</time>
      </trkpt>
      <trkpt lat="45.42652" lon="5.67886">
        <ele>943.523926</ele>
        <time>2019-05-24T13:39:36.393Z</time>
      </trkpt>
      <trkpt lat="45.42633" lon="5.67884">
        <ele>943.278809</ele>
        <time>2019-05-24T13:39:41.393Z</time>
      </trkpt>
      <trkpt lat="45.42615" lon="5.67879">
        <ele>940.621094</ele>
        <time>2019-05-24T13:39:46.393Z</time>
      </trkpt>
      <trkpt lat="45.42599" lon="5.67874">
        <ele>941.628784</ele>
        <time>2019-05-24T13:39:51.396Z</time>
      </trkpt>
      <trkpt lat="45.42587" lon="5.6786">
        <ele>938.989624</ele>
        <time>2019-05-24T13:39:56.396Z</time>
      </trkpt>
      <trkpt lat="45.42569" lon="5.67843">
        <ele>940.264893</ele>
        <time>2019-05-24T13:40:01.396Z</time>
      </trkpt>
      <trkpt lat="45.4255" lon="5.67824">
        <ele>937.224609</ele>
        <time>2019-05-24T13:40:06.396Z</time>
      </trkpt>
      <trkpt lat="45.42539" lon="5.67804">
        <ele>937.971558</ele>
        <time>2019-05-24T13:40:11.398Z</time>
      </trkpt>
      <trkpt lat="45.42536" lon="5.67791">
        <ele>940.431763</ele>
        <time>2019-05-24T13:40:16.398Z</time>
      </trkpt>
      <trkpt lat="45.42534" lon="5.67779">
        <ele>938.55542</ele>
        <time>2019-05-24T13:40:21.398Z</time>
      </trkpt>
      <trkpt lat="45.42528" lon="5.67767">
        <ele>941.269653</ele>
        <time>2019-05-24T13:40:26.398Z</time>
      </trkpt>
      <trkpt lat="45.42524" lon="5.67754">
        <ele>943.988037</ele>
        <time>2019-05-24T13:40:31.398Z</time>
      </trkpt>
      <trkpt lat="45.42519" lon="5.67742">
        <ele>944.28418</ele>
        <time>2019-05-24T13:40:36.398Z</time>
      </trkpt>
      <trkpt lat="45.42519" lon="5.67731">
        <ele>943.556641</ele>
        <time>2019-05-24T13:40:41.398Z</time>
      </trkpt>
      <trkpt lat="45.4252" lon="5.67721">
        <ele>944.421997</ele>
        <time>2019-05-24T13:40:46.398Z</time>
      </trkpt>
      <trkpt lat="45.4252" lon="5.6771">
        <ele>945.127319</ele>
        <time>2019-05-24T13:40:51.404Z</time>
      </trkpt>
      <trkpt lat="45.42521" lon="5.67695">
        <ele>947.55542</ele>
        <time>2019-05-24T13:40:56.404Z</time>
      </trkpt>
      <trkpt lat="45.42521" lon="5.67682">
        <ele>948.93042</ele>
        <time>2019-05-24T13:41:01.404Z</time>
      </trkpt>
      <trkpt lat="45.42524" lon="5.6767">
        <ele>951.821655</ele>
        <time>2019-05-24T13:41:06.404Z</time>
      </trkpt>
      <trkpt lat="45.42527" lon="5.67663">
        <ele>950.909424</ele>
        <time>2019-05-24T13:41:11.404Z</time>
      </trkpt>
      <trkpt lat="45.42531" lon="5.6765">
        <ele>950.786865</ele>
        <time>2019-05-24T13:41:16.404Z</time>
      </trkpt>
      <trkpt lat="45.42534" lon="5.67638">
        <ele>951.277588</ele>
        <time>2019-05-24T13:41:21.404Z</time>
      </trkpt>
      <trkpt lat="45.42538" lon="5.67627">
        <ele>953.035645</ele>
        <time>2019-05-24T13:41:26.404Z</time>
      </trkpt>
      <trkpt lat="45.42541" lon="5.67619">
        <ele>953.286621</ele>
        <time>2019-05-24T13:41:31.404Z</time>
      </trkpt>
      <trkpt lat="45.42546" lon="5.6761">
        <ele>953.928711</ele>
        <time>2019-05-24T13:41:36.404Z</time>
      </trkpt>
      <trkpt lat="45.42549" lon="5.67592">
        <ele>952.161133</ele>
        <time>2019-05-24T13:41:41.404Z</time>
      </trkpt>
      <trkpt lat="45.42552" lon="5.67576">
        <ele>950.5979</ele>
        <time>2019-05-24T13:41:46.404Z</time>
      </trkpt>
      <trkpt lat="45.42557" lon="5.67562">
        <ele>947.645264</ele>
        <time>2019-05-24T13:41:51.404Z</time>
      </trkpt>
      <trkpt lat="45.4255" lon="5.67552">
        <ele>947.736328</ele>
        <time>2019-05-24T13:41:57.388Z</time>
      </trkpt>
      <trkpt lat="45.42542" lon="5.6755">
        <ele>942.724121</ele>
        <time>2019-05-24T13:42:02.389Z</time>
      </trkpt>
      <trkpt lat="45.42536" lon="5.67548">
        <ele>941.802979</ele>
        <time>2019-05-24T13:42:07.389Z</time>
      </trkpt>
      <trkpt lat="45.42528" lon="5.67543">
        <ele>943.546631</ele>
        <time>2019-05-24T13:42:12.389Z</time>
      </trkpt>
      <trkpt lat="45.4252" lon="5.67539">
        <ele>942.7771</ele>
        <time>2019-05-24T13:42:17.396Z</time>
      </trkpt>
      <trkpt lat="45.42514" lon="5.67537">
        <ele>945.455566</ele>
        <time>2019-05-24T13:42:22.396Z</time>
      </trkpt>
      <trkpt lat="45.42512" lon="5.67535">
        <ele>944.407471</ele>
        <time>2019-05-24T13:42:29.182Z</time>
      </trkpt>
      <trkpt lat="45.42512" lon="5.67532">
        <ele>944.610107</ele>
        <time>2019-05-24T13:42:34.221Z</time>
      </trkpt>
      <trkpt lat="45.42511" lon="5.67535">
        <ele>948.427002</ele>
        <time>2019-05-24T13:42:41.800Z</time>
      </trkpt>
      <trkpt lat="45.42514" lon="5.67532">
        <ele>948.39209</ele>
        <time>2019-05-24T13:42:46.828Z</time>
      </trkpt>
      <trkpt lat="45.42517" lon="5.67536">
        <ele>946.388794</ele>
        <time>2019-05-24T13:43:01.380Z</time>
      </trkpt>
      <trkpt lat="45.42509" lon="5.6754">
        <ele>946.595459</ele>
        <time>2019-05-24T13:43:06.382Z</time>
      </trkpt>
      <trkpt lat="45.4251" lon="5.67544">
        <ele>948.279785</ele>
        <time>2019-05-24T13:43:11.384Z</time>
      </trkpt>
      <trkpt lat="45.42515" lon="5.67549">
        <ele>948.130615</ele>
        <time>2019-05-24T13:43:16.384Z</time>
      </trkpt>
      <trkpt lat="45.4252" lon="5.67557">
        <ele>947.398193</ele>
        <time>2019-05-24T13:43:21.385Z</time>
      </trkpt>
      <trkpt lat="45.42522" lon="5.67569">
        <ele>945.995361</ele>
        <time>2019-05-24T13:43:26.385Z</time>
      </trkpt>
      <trkpt lat="45.42522" lon="5.67584">
        <ele>946.310913</ele>
        <time>2019-05-24T13:43:31.386Z</time>
      </trkpt>
      <trkpt lat="45.42519" lon="5.67595">
        <ele>945.181763</ele>
        <time>2019-05-24T13:43:36.386Z</time>
      </trkpt>
      <trkpt lat="45.42517" lon="5.67603">
        <ele>946.883423</ele>
        <time>2019-05-24T13:43:41.386Z</time>
      </trkpt>
      <trkpt lat="45.42512" lon="5.67614">
        <ele>947.225098</ele>
        <time>2019-05-24T13:43:46.388Z</time>
      </trkpt>
      <trkpt lat="45.42513" lon="5.67619">
        <ele>946.938477</ele>
        <time>2019-05-24T13:43:52.460Z</time>
      </trkpt>
      <trkpt lat="45.42513" lon="5.67623">
        <ele>946.742554</ele>
        <time>2019-05-24T13:43:57.715Z</time>
      </trkpt>
      <trkpt lat="45.42515" lon="5.6763">
        <ele>945.845825</ele>
        <time>2019-05-24T13:44:02.778Z</time>
      </trkpt>
      <trkpt lat="45.42514" lon="5.67639">
        <ele>944.981323</ele>
        <time>2019-05-24T13:44:09.397Z</time>
      </trkpt>
      <trkpt lat="45.42508" lon="5.6764">
        <ele>944.176025</ele>
        <time>2019-05-24T13:44:14.397Z</time>
      </trkpt>
      <trkpt lat="45.42502" lon="5.67642">
        <ele>943.864014</ele>
        <time>2019-05-24T13:44:19.397Z</time>
      </trkpt>
      <trkpt lat="45.42494" lon="5.67648">
        <ele>941.982178</ele>
        <time>2019-05-24T13:44:24.398Z</time>
      </trkpt>
      <trkpt lat="45.42466" lon="5.67672">
        <ele>936.721436</ele>
        <time>2019-05-24T13:44:29.398Z</time>
      </trkpt>
      <trkpt lat="45.42454" lon="5.67692">
        <ele>929.992432</ele>
        <time>2019-05-24T13:44:35.391Z</time>
      </trkpt>
      <trkpt lat="45.42425" lon="5.67705">
        <ele>926.652222</ele>
        <time>2019-05-24T13:44:40.391Z</time>
      </trkpt>
      <trkpt lat="45.42404" lon="5.67707">
        <ele>918.904297</ele>
        <time>2019-05-24T13:44:45.391Z</time>
      </trkpt>
      <trkpt lat="45.42394" lon="5.67711">
        <ele>916.401245</ele>
        <time>2019-05-24T13:44:50.391Z</time>
      </trkpt>
      <trkpt lat="45.42379" lon="5.67715">
        <ele>913.772705</ele>
        <time>2019-05-24T13:44:55.399Z</time>
      </trkpt>
      <trkpt lat="45.4236" lon="5.67698">
        <ele>911.128296</ele>
        <time>2019-05-24T13:45:00.407Z</time>
      </trkpt>
      <trkpt lat="45.42346" lon="5.67704">
        <ele>910.302734</ele>
        <time>2019-05-24T13:45:05.407Z</time>
      </trkpt>
      <trkpt lat="45.42338" lon="5.67708">
        <ele>907.432617</ele>
        <time>2019-05-24T13:45:10.407Z</time>
      </trkpt>
      <trkpt lat="45.42328" lon="5.67713">
        <ele>902.780518</ele>
        <time>2019-05-24T13:45:16.075Z</time>
      </trkpt>
      <trkpt lat="45.42319" lon="5.67723">
        <ele>899.271606</ele>
        <time>2019-05-24T13:45:21.124Z</time>
      </trkpt>
      <trkpt lat="45.42308" lon="5.67737">
        <ele>892.796997</ele>
        <time>2019-05-24T13:45:26.180Z</time>
      </trkpt>
      <trkpt lat="45.42295" lon="5.67749">
        <ele>887.721436</ele>
        <time>2019-05-24T13:45:31.235Z</time>
      </trkpt>
      <trkpt lat="45.42282" lon="5.67748">
        <ele>881.593506</ele>
        <time>2019-05-24T13:45:36.354Z</time>
      </trkpt>
      <trkpt lat="45.42269" lon="5.67754">
        <ele>878.634644</ele>
        <time>2019-05-24T13:45:41.394Z</time>
      </trkpt>
      <trkpt lat="45.42254" lon="5.67751">
        <ele>873.397339</ele>
        <time>2019-05-24T13:45:46.401Z</time>
      </trkpt>
      <trkpt lat="45.42224" lon="5.6776">
        <ele>865.160278</ele>
        <time>2019-05-24T13:45:51.401Z</time>
      </trkpt>
      <trkpt lat="45.42215" lon="5.67778">
        <ele>862.591064</ele>
        <time>2019-05-24T13:45:56.401Z</time>
      </trkpt>
      <trkpt lat="45.42218" lon="5.67788">
        <ele>860.19043</ele>
        <time>2019-05-24T13:46:01.407Z</time>
      </trkpt>
      <trkpt lat="45.42231" lon="5.6781">
        <ele>858.299683</ele>
        <time>2019-05-24T13:46:06.407Z</time>
      </trkpt>
      <trkpt lat="45.42244" lon="5.67828">
        <ele>856.392822</ele>
        <time>2019-05-24T13:46:11.409Z</time>
      </trkpt>
      <trkpt lat="45.42251" lon="5.67844">
        <ele>857.7854</ele>
        <time>2019-05-24T13:46:16.411Z</time>
      </trkpt>
      <trkpt lat="45.42262" lon="5.67861">
        <ele>857.921021</ele>
        <time>2019-05-24T13:46:21.411Z</time>
      </trkpt>
      <trkpt lat="45.42269" lon="5.67878">
        <ele>858.942871</ele>
        <time>2019-05-24T13:46:27.009Z</time>
      </trkpt>
      <trkpt lat="45.42276" lon="5.67903">
        <ele>859.536377</ele>
        <time>2019-05-24T13:46:32.382Z</time>
      </trkpt>
      <trkpt lat="45.42278" lon="5.6792">
        <ele>859.442383</ele>
        <time>2019-05-24T13:46:37.388Z</time>
      </trkpt>
      <trkpt lat="45.42284" lon="5.67963">
        <ele>855.329102</ele>
        <time>2019-05-24T13:46:42.388Z</time>
      </trkpt>
      <trkpt lat="45.42295" lon="5.68009">
        <ele>851.728027</ele>
        <time>2019-05-24T13:46:47.390Z</time>
      </trkpt>
      <trkpt lat="45.42306" lon="5.6805">
        <ele>849.572998</ele>
        <time>2019-05-24T13:46:52.394Z</time>
      </trkpt>
      <trkpt lat="45.42321" lon="5.68098">
        <ele>846.866455</ele>
        <time>2019-05-24T13:46:57.397Z</time>
      </trkpt>
      <trkpt lat="45.42338" lon="5.68138">
        <ele>842.11792</ele>
        <time>2019-05-24T13:47:02.397Z</time>
      </trkpt>
      <trkpt lat="45.42348" lon="5.68163">
        <ele>841.995361</ele>
        <time>2019-05-24T13:47:07.397Z</time>
      </trkpt>
      <trkpt lat="45.42354" lon="5.68176">
        <ele>844.554443</ele>
        <time>2019-05-24T13:47:12.397Z</time>
      </trkpt>
      <trkpt lat="45.42362" lon="5.68172">
        <ele>844.046875</ele>
        <time>2019-05-24T13:47:18.392Z</time>
      </trkpt>
      <trkpt lat="45.42366" lon="5.68175">
        <ele>842.396118</ele>
        <time>2019-05-24T13:47:34.387Z</time>
      </trkpt>
      <trkpt lat="45.42375" lon="5.68176">
        <ele>845.74646</ele>
        <time>2019-05-24T13:47:39.404Z</time>
      </trkpt>
      <trkpt lat="45.42381" lon="5.68177">
        <ele>845.247803</ele>
        <time>2019-05-24T13:47:44.404Z</time>
      </trkpt>
      <trkpt lat="45.42389" lon="5.68183">
        <ele>848.99292</ele>
        <time>2019-05-24T13:47:49.404Z</time>
      </trkpt>
      <trkpt lat="45.42396" lon="5.68192">
        <ele>851.406006</ele>
        <time>2019-05-24T13:47:55.205Z</time>
      </trkpt>
      <trkpt lat="45.42401" lon="5.682">
        <ele>851.548706</ele>
        <time>2019-05-24T13:48:00.246Z</time>
      </trkpt>
      <trkpt lat="45.42408" lon="5.68208">
        <ele>853.086304</ele>
        <time>2019-05-24T13:48:05.300Z</time>
      </trkpt>
      <trkpt lat="45.42414" lon="5.68214">
        <ele>852.627197</ele>
        <time>2019-05-24T13:48:10.334Z</time>
      </trkpt>
      <trkpt lat="45.42425" lon="5.68222">
        <ele>852.529785</ele>
        <time>2019-05-24T13:48:15.408Z</time>
      </trkpt>
      <trkpt lat="45.42434" lon="5.68226">
        <ele>849.810791</ele>
        <time>2019-05-24T13:48:20.408Z</time>
      </trkpt>
      <trkpt lat="45.42444" lon="5.68232">
        <ele>852.327271</ele>
        <time>2019-05-24T13:48:25.408Z</time>
      </trkpt>
      <trkpt lat="45.42453" lon="5.68239">
        <ele>851.543701</ele>
        <time>2019-05-24T13:48:30.583Z</time>
      </trkpt>
      <trkpt lat="45.42462" lon="5.68243">
        <ele>850.841187</ele>
        <time>2019-05-24T13:48:35.677Z</time>
      </trkpt>
      <trkpt lat="45.42469" lon="5.68249">
        <ele>852.352539</ele>
        <time>2019-05-24T13:48:40.700Z</time>
      </trkpt>
      <trkpt lat="45.42478" lon="5.68257">
        <ele>853.837402</ele>
        <time>2019-05-24T13:48:45.737Z</time>
      </trkpt>
      <trkpt lat="45.42485" lon="5.68265">
        <ele>851.368408</ele>
        <time>2019-05-24T13:48:50.766Z</time>
      </trkpt>
      <trkpt lat="45.42491" lon="5.68274">
        <ele>853.235596</ele>
        <time>2019-05-24T13:48:55.812Z</time>
      </trkpt>
      <trkpt lat="45.42499" lon="5.68284">
        <ele>852.344727</ele>
        <time>2019-05-24T13:49:00.849Z</time>
      </trkpt>
      <trkpt lat="45.42504" lon="5.68291">
        <ele>850.950928</ele>
        <time>2019-05-24T13:49:05.918Z</time>
      </trkpt>
      <trkpt lat="45.42511" lon="5.68298">
        <ele>853.575684</ele>
        <time>2019-05-24T13:49:10.970Z</time>
      </trkpt>
      <trkpt lat="45.42518" lon="5.68304">
        <ele>855.240112</ele>
        <time>2019-05-24T13:49:16.018Z</time>
      </trkpt>
      <trkpt lat="45.42525" lon="5.68312">
        <ele>854.192261</ele>
        <time>2019-05-24T13:49:21.083Z</time>
      </trkpt>
      <trkpt lat="45.42533" lon="5.6832">
        <ele>853.213379</ele>
        <time>2019-05-24T13:49:26.134Z</time>
      </trkpt>
      <trkpt lat="45.42543" lon="5.6833">
        <ele>853.693359</ele>
        <time>2019-05-24T13:49:31.181Z</time>
      </trkpt>
      <trkpt lat="45.42556" lon="5.68352">
        <ele>852.056396</ele>
        <time>2019-05-24T13:49:36.237Z</time>
      </trkpt>
      <trkpt lat="45.4257" lon="5.68359">
        <ele>849.516357</ele>
        <time>2019-05-24T13:49:41.282Z</time>
      </trkpt>
      <trkpt lat="45.4258" lon="5.68358">
        <ele>848.123779</ele>
        <time>2019-05-24T13:49:46.320Z</time>
      </trkpt>
      <trkpt lat="45.42587" lon="5.68358">
        <ele>851.984375</ele>
        <time>2019-05-24T13:49:51.397Z</time>
      </trkpt>
      <trkpt lat="45.42595" lon="5.68362">
        <ele>852.243652</ele>
        <time>2019-05-24T13:49:56.397Z</time>
      </trkpt>
      <trkpt lat="45.42603" lon="5.68364">
        <ele>851.784668</ele>
        <time>2019-05-24T13:50:01.397Z</time>
      </trkpt>
      <trkpt lat="45.42614" lon="5.68371">
        <ele>855.709229</ele>
        <time>2019-05-24T13:50:13.389Z</time>
      </trkpt>
      <trkpt lat="45.42627" lon="5.68381">
        <ele>855.570557</ele>
        <time>2019-05-24T13:50:18.390Z</time>
      </trkpt>
      <trkpt lat="45.42638" lon="5.68392">
        <ele>856.459106</ele>
        <time>2019-05-24T13:50:23.390Z</time>
      </trkpt>
      <trkpt lat="45.42651" lon="5.68401">
        <ele>857.539063</ele>
        <time>2019-05-24T13:50:28.390Z</time>
      </trkpt>
      <trkpt lat="45.42665" lon="5.68406">
        <ele>855.991821</ele>
        <time>2019-05-24T13:50:33.390Z</time>
      </trkpt>
      <trkpt lat="45.42673" lon="5.68407">
        <ele>858.087402</ele>
        <time>2019-05-24T13:50:38.390Z</time>
      </trkpt>
      <trkpt lat="45.4268" lon="5.68404">
        <ele>860.687988</ele>
        <time>2019-05-24T13:50:43.390Z</time>
      </trkpt>
      <trkpt lat="45.42689" lon="5.68404">
        <ele>860.391113</ele>
        <time>2019-05-24T13:50:48.390Z</time>
      </trkpt>
      <trkpt lat="45.42697" lon="5.68405">
        <ele>861.903809</ele>
        <time>2019-05-24T13:50:53.390Z</time>
      </trkpt>
      <trkpt lat="45.42706" lon="5.68406">
        <ele>860.139282</ele>
        <time>2019-05-24T13:50:58.390Z</time>
      </trkpt>
      <trkpt lat="45.42713" lon="5.68409">
        <ele>863.154053</ele>
        <time>2019-05-24T13:51:03.390Z</time>
      </trkpt>
      <trkpt lat="45.42721" lon="5.68415">
        <ele>867.655151</ele>
        <time>2019-05-24T13:51:09.382Z</time>
      </trkpt>
      <trkpt lat="45.42727" lon="5.68422">
        <ele>868.687988</ele>
        <time>2019-05-24T13:51:14.382Z</time>
      </trkpt>
      <trkpt lat="45.42738" lon="5.68436">
        <ele>869.790283</ele>
        <time>2019-05-24T13:51:19.382Z</time>
      </trkpt>
      <trkpt lat="45.42752" lon="5.68453">
        <ele>868.166748</ele>
        <time>2019-05-24T13:51:24.382Z</time>
      </trkpt>
      <trkpt lat="45.42767" lon="5.68468">
        <ele>867.187988</ele>
        <time>2019-05-24T13:51:29.382Z</time>
      </trkpt>
      <trkpt lat="45.42781" lon="5.68483">
        <ele>865.629883</ele>
        <time>2019-05-24T13:51:34.382Z</time>
      </trkpt>
      <trkpt lat="45.42795" lon="5.68492">
        <ele>866.319092</ele>
        <time>2019-05-24T13:51:39.385Z</time>
      </trkpt>
      <trkpt lat="45.42804" lon="5.68499">
        <ele>866.495605</ele>
        <time>2019-05-24T13:51:44.385Z</time>
      </trkpt>
      <trkpt lat="45.42811" lon="5.68506">
        <ele>866.403931</ele>
        <time>2019-05-24T13:51:49.385Z</time>
      </trkpt>
      <trkpt lat="45.42808" lon="5.68535">
        <ele>865.272949</ele>
        <time>2019-05-24T13:51:54.385Z</time>
      </trkpt>
      <trkpt lat="45.42794" lon="5.68585">
        <ele>860.081299</ele>
        <time>2019-05-24T13:51:59.392Z</time>
      </trkpt>
      <trkpt lat="45.42783" lon="5.68629">
        <ele>854.736206</ele>
        <time>2019-05-24T13:52:05.290Z</time>
      </trkpt>
      <trkpt lat="45.42774" lon="5.68667">
        <ele>849.539185</ele>
        <time>2019-05-24T13:52:10.340Z</time>
      </trkpt>
      <trkpt lat="45.42748" lon="5.68694">
        <ele>840.736206</ele>
        <time>2019-05-24T13:52:15.386Z</time>
      </trkpt>
      <trkpt lat="45.42729" lon="5.68717">
        <ele>838.717407</ele>
        <time>2019-05-24T13:52:20.386Z</time>
      </trkpt>
      <trkpt lat="45.4271" lon="5.68716">
        <ele>838.048584</ele>
        <time>2019-05-24T13:52:25.386Z</time>
      </trkpt>
      <trkpt lat="45.42684" lon="5.68714">
        <ele>834.571899</ele>
        <time>2019-05-24T13:52:30.397Z</time>
      </trkpt>
      <trkpt lat="45.42658" lon="5.68717">
        <ele>832.042725</ele>
        <time>2019-05-24T13:52:35.397Z</time>
      </trkpt>
      <trkpt lat="45.42639" lon="5.68702">
        <ele>834.830322</ele>
        <time>2019-05-24T13:52:40.400Z</time>
      </trkpt>
      <trkpt lat="45.42626" lon="5.68681">
        <ele>835.988037</ele>
        <time>2019-05-24T13:52:45.400Z</time>
      </trkpt>
      <trkpt lat="45.42606" lon="5.68655">
        <ele>832.995605</ele>
        <time>2019-05-24T13:52:50.400Z</time>
      </trkpt>
      <trkpt lat="45.42595" lon="5.6862">
        <ele>831.613525</ele>
        <time>2019-05-24T13:52:55.400Z</time>
      </trkpt>
      <trkpt lat="45.42585" lon="5.68591">
        <ele>828.416748</ele>
        <time>2019-05-24T13:53:00.400Z</time>
      </trkpt>
      <trkpt lat="45.42572" lon="5.68568">
        <ele>827.106934</ele>
        <time>2019-05-24T13:53:05.935Z</time>
      </trkpt>
      <trkpt lat="45.42553" lon="5.68554">
        <ele>825.480469</ele>
        <time>2019-05-24T13:53:10.974Z</time>
      </trkpt>
      <trkpt lat="45.42532" lon="5.68538">
        <ele>826.519531</ele>
        <time>2019-05-24T13:53:16.148Z</time>
      </trkpt>
      <trkpt lat="45.42521" lon="5.68527">
        <ele>828.070801</ele>
        <time>2019-05-24T13:53:21.215Z</time>
      </trkpt>
      <trkpt lat="45.42511" lon="5.68517">
        <ele>826.699707</ele>
        <time>2019-05-24T13:53:26.272Z</time>
      </trkpt>
      <trkpt lat="45.42502" lon="5.68511">
        <ele>826.04126</ele>
        <time>2019-05-24T13:53:31.338Z</time>
      </trkpt>
      <trkpt lat="45.42485" lon="5.685">
        <ele>824.356567</ele>
        <time>2019-05-24T13:53:36.395Z</time>
      </trkpt>
      <trkpt lat="45.42465" lon="5.68488">
        <ele>823.381836</ele>
        <time>2019-05-24T13:53:41.395Z</time>
      </trkpt>
      <trkpt lat="45.42443" lon="5.68458">
        <ele>823.936279</ele>
        <time>2019-05-24T13:53:46.395Z</time>
      </trkpt>
      <trkpt lat="45.42416" lon="5.68448">
        <ele>823.629639</ele>
        <time>2019-05-24T13:53:51.395Z</time>
      </trkpt>
      <trkpt lat="45.42388" lon="5.68438">
        <ele>823.080078</ele>
        <time>2019-05-24T13:53:56.395Z</time>
      </trkpt>
      <trkpt lat="45.42362" lon="5.68425">
        <ele>817.563965</ele>
        <time>2019-05-24T13:54:01.395Z</time>
      </trkpt>
      <trkpt lat="45.42353" lon="5.684">
        <ele>818.695313</ele>
        <time>2019-05-24T13:54:06.395Z</time>
      </trkpt>
      <trkpt lat="45.4234" lon="5.68385">
        <ele>817.956299</ele>
        <time>2019-05-24T13:54:11.395Z</time>
      </trkpt>
      <trkpt lat="45.4232" lon="5.68365">
        <ele>814.771851</ele>
        <time>2019-05-24T13:54:16.734Z</time>
      </trkpt>
      <trkpt lat="45.42298" lon="5.68347">
        <ele>816.187134</ele>
        <time>2019-05-24T13:54:21.951Z</time>
      </trkpt>
      <trkpt lat="45.42288" lon="5.68324">
        <ele>818.882324</ele>
        <time>2019-05-24T13:54:27.010Z</time>
      </trkpt>
      <trkpt lat="45.42284" lon="5.68306">
        <ele>814.817383</ele>
        <time>2019-05-24T13:54:32.049Z</time>
      </trkpt>
      <trkpt lat="45.4227" lon="5.68287">
        <ele>816.139648</ele>
        <time>2019-05-24T13:54:37.079Z</time>
      </trkpt>
      <trkpt lat="45.42254" lon="5.68253">
        <ele>817.088623</ele>
        <time>2019-05-24T13:54:42.102Z</time>
      </trkpt>
      <trkpt lat="45.42258" lon="5.68238">
        <ele>819.96167</ele>
        <time>2019-05-24T13:54:47.137Z</time>
      </trkpt>
      <trkpt lat="45.42253" lon="5.6822">
        <ele>821.475708</ele>
        <time>2019-05-24T13:54:52.201Z</time>
      </trkpt>
      <trkpt lat="45.42246" lon="5.68204">
        <ele>819.526367</ele>
        <time>2019-05-24T13:54:57.257Z</time>
      </trkpt>
      <trkpt lat="45.42229" lon="5.68187">
        <ele>814.919434</ele>
        <time>2019-05-24T13:55:02.293Z</time>
      </trkpt>
      <trkpt lat="45.42199" lon="5.68159">
        <ele>808.745117</ele>
        <time>2019-05-24T13:55:07.351Z</time>
      </trkpt>
      <trkpt lat="45.4218" lon="5.68129">
        <ele>809.815186</ele>
        <time>2019-05-24T13:55:12.401Z</time>
      </trkpt>
      <trkpt lat="45.42153" lon="5.68108">
        <ele>807.34375</ele>
        <time>2019-05-24T13:55:17.401Z</time>
      </trkpt>
      <trkpt lat="45.42128" lon="5.68111">
        <ele>806.998047</ele>
        <time>2019-05-24T13:55:22.401Z</time>
      </trkpt>
      <trkpt lat="45.42106" lon="5.68126">
        <ele>803.49231</ele>
        <time>2019-05-24T13:55:27.401Z</time>
      </trkpt>
      <trkpt lat="45.42091" lon="5.68102">
        <ele>800.661621</ele>
        <time>2019-05-24T13:55:32.401Z</time>
      </trkpt>
      <trkpt lat="45.4208" lon="5.68075">
        <ele>799.884521</ele>
        <time>2019-05-24T13:55:37.401Z</time>
      </trkpt>
      <trkpt lat="45.42064" lon="5.68046">
        <ele>795.247314</ele>
        <time>2019-05-24T13:55:42.401Z</time>
      </trkpt>
      <trkpt lat="45.42042" lon="5.68015">
        <ele>794.627197</ele>
        <time>2019-05-24T13:55:47.401Z</time>
      </trkpt>
      <trkpt lat="45.42023" lon="5.67998">
        <ele>789.161255</ele>
        <time>2019-05-24T13:55:52.401Z</time>
      </trkpt>
      <trkpt lat="45.41995" lon="5.6799">
        <ele>786.225586</ele>
        <time>2019-05-24T13:55:57.401Z</time>
      </trkpt>
      <trkpt lat="45.41979" lon="5.67972">
        <ele>784.142456</ele>
        <time>2019-05-24T13:56:02.401Z</time>
      </trkpt>
      <trkpt lat="45.41979" lon="5.67993">
        <ele>785.468018</ele>
        <time>2019-05-24T13:56:07.402Z</time>
      </trkpt>
      <trkpt lat="45.4198" lon="5.68017">
        <ele>785.336182</ele>
        <time>2019-05-24T13:56:12.402Z</time>
      </trkpt>
      <trkpt lat="45.41991" lon="5.68045">
        <ele>783.004517</ele>
        <time>2019-05-24T13:56:17.402Z</time>
      </trkpt>
      <trkpt lat="45.42005" lon="5.68075">
        <ele>779.82251</ele>
        <time>2019-05-24T13:56:22.402Z</time>
      </trkpt>
      <trkpt lat="45.42001" lon="5.681">
        <ele>777.269287</ele>
        <time>2019-05-24T13:56:27.403Z</time>
      </trkpt>
      <trkpt lat="45.42006" lon="5.68114">
        <ele>778.208984</ele>
        <time>2019-05-24T13:56:32.403Z</time>
      </trkpt>
      <trkpt lat="45.42013" lon="5.68127">
        <ele>779.672607</ele>
        <time>2019-05-24T13:56:37.403Z</time>
      </trkpt>
      <trkpt lat="45.42017" lon="5.68139">
        <ele>780.791748</ele>
        <time>2019-05-24T13:56:42.403Z</time>
      </trkpt>
      <trkpt lat="45.42021" lon="5.68152">
        <ele>780.278931</ele>
        <time>2019-05-24T13:56:47.403Z</time>
      </trkpt>
      <trkpt lat="45.42018" lon="5.6816">
        <ele>782.161865</ele>
        <time>2019-05-24T13:56:52.403Z</time>
      </trkpt>
      <trkpt lat="45.42016" lon="5.6817">
        <ele>781.586792</ele>
        <time>2019-05-24T13:56:57.403Z</time>
      </trkpt>
      <trkpt lat="45.42024" lon="5.68183">
        <ele>780.487061</ele>
        <time>2019-05-24T13:57:03.393Z</time>
      </trkpt>
      <trkpt lat="45.42032" lon="5.68193">
        <ele>778.015625</ele>
        <time>2019-05-24T13:57:08.393Z</time>
      </trkpt>
      <trkpt lat="45.4204" lon="5.68201">
        <ele>779.515747</ele>
        <time>2019-05-24T13:57:13.395Z</time>
      </trkpt>
      <trkpt lat="45.42044" lon="5.68206">
        <ele>781.376953</ele>
        <time>2019-05-24T13:57:18.395Z</time>
      </trkpt>
      <trkpt lat="45.42046" lon="5.68212">
        <ele>780.966064</ele>
        <time>2019-05-24T13:57:23.401Z</time>
      </trkpt>
      <trkpt lat="45.42051" lon="5.68215">
        <ele>781.755615</ele>
        <time>2019-05-24T13:57:28.401Z</time>
      </trkpt>
      <trkpt lat="45.42059" lon="5.68216">
        <ele>782.399048</ele>
        <time>2019-05-24T13:57:33.401Z</time>
      </trkpt>
      <trkpt lat="45.42064" lon="5.68214">
        <ele>781.814819</ele>
        <time>2019-05-24T13:57:38.402Z</time>
      </trkpt>
      <trkpt lat="45.42071" lon="5.68217">
        <ele>782.594971</ele>
        <time>2019-05-24T13:57:43.402Z</time>
      </trkpt>
      <trkpt lat="45.42074" lon="5.68223">
        <ele>786.445801</ele>
        <time>2019-05-24T13:57:54.403Z</time>
      </trkpt>
      <trkpt lat="45.4208" lon="5.68228">
        <ele>788.39209</ele>
        <time>2019-05-24T13:57:59.403Z</time>
      </trkpt>
      <trkpt lat="45.42087" lon="5.68231">
        <ele>786.519165</ele>
        <time>2019-05-24T13:58:04.404Z</time>
      </trkpt>
      <trkpt lat="45.42094" lon="5.68241">
        <ele>787.995117</ele>
        <time>2019-05-24T13:58:09.404Z</time>
      </trkpt>
      <trkpt lat="45.42094" lon="5.68255">
        <ele>787.448242</ele>
        <time>2019-05-24T13:58:14.406Z</time>
      </trkpt>
      <trkpt lat="45.42093" lon="5.68267">
        <ele>788.305176</ele>
        <time>2019-05-24T13:58:19.406Z</time>
      </trkpt>
      <trkpt lat="45.4209" lon="5.68282">
        <ele>786.297607</ele>
        <time>2019-05-24T13:58:24.407Z</time>
      </trkpt>
      <trkpt lat="45.42079" lon="5.68322">
        <ele>776.902832</ele>
        <time>2019-05-24T13:58:29.407Z</time>
      </trkpt>
      <trkpt lat="45.42066" lon="5.68347">
        <ele>777.166504</ele>
        <time>2019-05-24T13:58:34.407Z</time>
      </trkpt>
      <trkpt lat="45.4206" lon="5.68353">
        <ele>775.715332</ele>
        <time>2019-05-24T13:58:39.407Z</time>
      </trkpt>
      <trkpt lat="45.4205" lon="5.68367">
        <ele>770.515869</ele>
        <time>2019-05-24T13:58:44.407Z</time>
      </trkpt>
      <trkpt lat="45.4203" lon="5.68418">
        <ele>764.703369</ele>
        <time>2019-05-24T13:58:50.093Z</time>
      </trkpt>
      <trkpt lat="45.42021" lon="5.68442">
        <ele>761.350586</ele>
        <time>2019-05-24T13:58:55.178Z</time>
      </trkpt>
      <trkpt lat="45.42018" lon="5.68457">
        <ele>757.996338</ele>
        <time>2019-05-24T13:59:00.245Z</time>
      </trkpt>
      <trkpt lat="45.4201" lon="5.68475">
        <ele>756.423096</ele>
        <time>2019-05-24T13:59:05.296Z</time>
      </trkpt>
      <trkpt lat="45.41998" lon="5.68487">
        <ele>749.607056</ele>
        <time>2019-05-24T13:59:10.347Z</time>
      </trkpt>
      <trkpt lat="45.41975" lon="5.68498">
        <ele>748.352295</ele>
        <time>2019-05-24T13:59:15.377Z</time>
      </trkpt>
      <trkpt lat="45.4197" lon="5.6853">
        <ele>742.721191</ele>
        <time>2019-05-24T13:59:20.385Z</time>
      </trkpt>
      <trkpt lat="45.41966" lon="5.68553">
        <ele>740.263184</ele>
        <time>2019-05-24T13:59:25.396Z</time>
      </trkpt>
      <trkpt lat="45.41959" lon="5.68576">
        <ele>735.897949</ele>
        <time>2019-05-24T13:59:30.396Z</time>
      </trkpt>
      <trkpt lat="45.41948" lon="5.68592">
        <ele>731.63623</ele>
        <time>2019-05-24T13:59:35.396Z</time>
      </trkpt>
      <trkpt lat="45.41933" lon="5.68611">
        <ele>726.989502</ele>
        <time>2019-05-24T13:59:40.396Z</time>
      </trkpt>
      <trkpt lat="45.41915" lon="5.68628">
        <ele>718.013428</ele>
        <time>2019-05-24T13:59:45.396Z</time>
      </trkpt>
      <trkpt lat="45.41912" lon="5.68636">
        <ele>711.192383</ele>
        <time>2019-05-24T14:00:25.388Z</time>
      </trkpt>
      <trkpt lat="45.41909" lon="5.68649">
        <ele>707.152832</ele>
        <time>2019-05-24T14:00:30.392Z</time>
      </trkpt>
      <trkpt lat="45.419" lon="5.68654">
        <ele>701.999268</ele>
        <time>2019-05-24T14:00:35.396Z</time>
      </trkpt>
      <trkpt lat="45.41875" lon="5.68642">
        <ele>700.893433</ele>
        <time>2019-05-24T14:00:40.396Z</time>
      </trkpt>
      <trkpt lat="45.41855" lon="5.68625">
        <ele>696.7771</ele>
        <time>2019-05-24T14:00:45.396Z</time>
      </trkpt>
      <trkpt lat="45.41828" lon="5.68592">
        <ele>698.029785</ele>
        <time>2019-05-24T14:00:52.390Z</time>
      </trkpt>
      <trkpt lat="45.41808" lon="5.68543">
        <ele>694.479248</ele>
        <time>2019-05-24T14:00:57.398Z</time>
      </trkpt>
      <trkpt lat="45.41806" lon="5.68523">
        <ele>694.078613</ele>
        <time>2019-05-24T14:01:02.398Z</time>
      </trkpt>
      <trkpt lat="45.41794" lon="5.68501">
        <ele>692.755615</ele>
        <time>2019-05-24T14:01:07.398Z</time>
      </trkpt>
      <trkpt lat="45.41781" lon="5.68485">
        <ele>690.503052</ele>
        <time>2019-05-24T14:01:12.398Z</time>
      </trkpt>
      <trkpt lat="45.41781" lon="5.68477">
        <ele>689.761841</ele>
        <time>2019-05-24T14:01:29.383Z</time>
      </trkpt>
      <trkpt lat="45.41784" lon="5.68467">
        <ele>691.121826</ele>
        <time>2019-05-24T14:01:34.401Z</time>
      </trkpt>
      <trkpt lat="45.41783" lon="5.68463">
        <ele>693.914673</ele>
        <time>2019-05-24T14:01:43.387Z</time>
      </trkpt>
      <trkpt lat="45.41783" lon="5.68454">
        <ele>697.906128</ele>
        <time>2019-05-24T14:01:48.387Z</time>
      </trkpt>
      <trkpt lat="45.41783" lon="5.68448">
        <ele>697.316406</ele>
        <time>2019-05-24T14:01:53.388Z</time>
      </trkpt>
      <trkpt lat="45.41784" lon="5.68441">
        <ele>696.293335</ele>
        <time>2019-05-24T14:01:58.396Z</time>
      </trkpt>
      <trkpt lat="45.41785" lon="5.68436">
        <ele>697.877563</ele>
        <time>2019-05-24T14:02:03.411Z</time>
      </trkpt>
      <trkpt lat="45.41784" lon="5.68431">
        <ele>697.957642</ele>
        <time>2019-05-24T14:02:08.415Z</time>
      </trkpt>
      <trkpt lat="45.41782" lon="5.68426">
        <ele>700.01709</ele>
        <time>2019-05-24T14:02:13.415Z</time>
      </trkpt>
      <trkpt lat="45.4178" lon="5.68421">
        <ele>701.186157</ele>
        <time>2019-05-24T14:02:18.416Z</time>
      </trkpt>
      <trkpt lat="45.41779" lon="5.68414">
        <ele>700.602783</ele>
        <time>2019-05-24T14:02:34.388Z</time>
      </trkpt>
      <trkpt lat="45.41777" lon="5.68398">
        <ele>699.893188</ele>
        <time>2019-05-24T14:02:39.396Z</time>
      </trkpt>
      <trkpt lat="45.41778" lon="5.68393">
        <ele>699.57959</ele>
        <time>2019-05-24T14:02:44.398Z</time>
      </trkpt>
      <trkpt lat="45.41779" lon="5.68389">
        <ele>700.833008</ele>
        <time>2019-05-24T14:02:49.407Z</time>
      </trkpt>
      <trkpt lat="45.41781" lon="5.68385">
        <ele>704.976074</ele>
        <time>2019-05-24T14:02:55.407Z</time>
      </trkpt>
      <trkpt lat="45.41783" lon="5.68381">
        <ele>708.01709</ele>
        <time>2019-05-24T14:03:00.409Z</time>
      </trkpt>
      <trkpt lat="45.41786" lon="5.68378">
        <ele>709.097412</ele>
        <time>2019-05-24T14:03:11.404Z</time>
      </trkpt>
      <trkpt lat="45.41794" lon="5.68373">
        <ele>707.824951</ele>
        <time>2019-05-24T14:03:17.403Z</time>
      </trkpt>
      <trkpt lat="45.41796" lon="5.6837">
        <ele>708.603149</ele>
        <time>2019-05-24T14:03:23.407Z</time>
      </trkpt>
      <trkpt lat="45.41794" lon="5.68371">
        <ele>706.068726</ele>
        <time>2019-05-24T14:03:34.393Z</time>
      </trkpt>
      <trkpt lat="45.41793" lon="5.68372">
        <ele>706.104248</ele>
        <time>2019-05-24T14:03:41.404Z</time>
      </trkpt>
      <trkpt lat="45.41784" lon="5.68369">
        <ele>705.755859</ele>
        <time>2019-05-24T14:03:46.404Z</time>
      </trkpt>
      <trkpt lat="45.41779" lon="5.68369">
        <ele>706.495605</ele>
        <time>2019-05-24T14:03:51.404Z</time>
      </trkpt>
      <trkpt lat="45.41772" lon="5.6837">
        <ele>703.379395</ele>
        <time>2019-05-24T14:03:56.404Z</time>
      </trkpt>
      <trkpt lat="45.41763" lon="5.68367">
        <ele>699.817871</ele>
        <time>2019-05-24T14:04:01.404Z</time>
      </trkpt>
      <trkpt lat="45.4175" lon="5.68365">
        <ele>696.45874</ele>
        <time>2019-05-24T14:04:06.414Z</time>
      </trkpt>
      <trkpt lat="45.41738" lon="5.68365">
        <ele>691.84375</ele>
        <time>2019-05-24T14:04:11.414Z</time>
      </trkpt>
      <trkpt lat="45.4173" lon="5.68374">
        <ele>689.389648</ele>
        <time>2019-05-24T14:04:16.414Z</time>
      </trkpt>
      <trkpt lat="45.41722" lon="5.68381">
        <ele>687.619141</ele>
        <time>2019-05-24T14:04:21.414Z</time>
      </trkpt>
      <trkpt lat="45.41711" lon="5.68386">
        <ele>685.936279</ele>
        <time>2019-05-24T14:04:26.414Z</time>
      </trkpt>
      <trkpt lat="45.41695" lon="5.68388">
        <ele>681.791748</ele>
        <time>2019-05-24T14:04:31.414Z</time>
      </trkpt>
      <trkpt lat="45.4168" lon="5.68409">
        <ele>673.900146</ele>
        <time>2019-05-24T14:04:36.716Z</time>
      </trkpt>
      <trkpt lat="45.41668" lon="5.68383">
        <ele>671.951416</ele>
        <time>2019-05-24T14:04:41.757Z</time>
      </trkpt>
      <trkpt lat="45.41633" lon="5.68344">
        <ele>668.950806</ele>
        <time>2019-05-24T14:04:47.400Z</time>
      </trkpt>
      <trkpt lat="45.41612" lon="5.68355">
        <ele>661.801758</ele>
        <time>2019-05-24T14:04:52.400Z</time>
      </trkpt>
      <trkpt lat="45.41599" lon="5.68369">
        <ele>664.337524</ele>
        <time>2019-05-24T14:04:57.403Z</time>
      </trkpt>
      <trkpt lat="45.41592" lon="5.68411">
        <ele>658.122559</ele>
        <time>2019-05-24T14:05:03.401Z</time>
      </trkpt>
      <trkpt lat="45.41575" lon="5.68444">
        <ele>660.51709</ele>
        <time>2019-05-24T14:05:08.401Z</time>
      </trkpt>
      <trkpt lat="45.41567" lon="5.68485">
        <ele>657.223145</ele>
        <time>2019-05-24T14:05:13.401Z</time>
      </trkpt>
      <trkpt lat="45.41568" lon="5.68523">
        <ele>652.906982</ele>
        <time>2019-05-24T14:05:19.390Z</time>
      </trkpt>
      <trkpt lat="45.41569" lon="5.68533">
        <ele>652.269775</ele>
        <time>2019-05-24T14:05:29.390Z</time>
      </trkpt>
      <trkpt lat="45.4157" lon="5.68535">
        <ele>650.439941</ele>
        <time>2019-05-24T14:05:34.392Z</time>
      </trkpt>
      <trkpt lat="45.41574" lon="5.68543">
        <ele>647.677002</ele>
        <time>2019-05-24T14:05:39.411Z</time>
      </trkpt>
      <trkpt lat="45.41573" lon="5.68563">
        <ele>645.677979</ele>
        <time>2019-05-24T14:05:44.946Z</time>
      </trkpt>
      <trkpt lat="45.4157" lon="5.68599">
        <ele>644.554565</ele>
        <time>2019-05-24T14:05:50.031Z</time>
      </trkpt>
      <trkpt lat="45.41561" lon="5.68652">
        <ele>643.736816</ele>
        <time>2019-05-24T14:05:55.234Z</time>
      </trkpt>
      <trkpt lat="45.41555" lon="5.68677">
        <ele>640.722046</ele>
        <time>2019-05-24T14:06:00.297Z</time>
      </trkpt>
      <trkpt lat="45.4155" lon="5.68699">
        <ele>640.502686</ele>
        <time>2019-05-24T14:06:05.333Z</time>
      </trkpt>
      <trkpt lat="45.41545" lon="5.68711">
        <ele>638.178955</ele>
        <time>2019-05-24T14:06:10.373Z</time>
      </trkpt>
      <trkpt lat="45.41548" lon="5.68705">
        <ele>637.982056</ele>
        <time>2019-05-24T14:06:15.401Z</time>
      </trkpt>
      <trkpt lat="45.41553" lon="5.68676">
        <ele>638.694092</ele>
        <time>2019-05-24T14:06:20.401Z</time>
      </trkpt>
      <trkpt lat="45.41561" lon="5.68636">
        <ele>639.112793</ele>
        <time>2019-05-24T14:06:26.389Z</time>
      </trkpt>
      <trkpt lat="45.4157" lon="5.68599">
        <ele>639.964355</ele>
        <time>2019-05-24T14:06:31.389Z</time>
      </trkpt>
      <trkpt lat="45.41567" lon="5.68566">
        <ele>640.206055</ele>
        <time>2019-05-24T14:06:36.389Z</time>
      </trkpt>
      <trkpt lat="45.41551" lon="5.68544">
        <ele>641.586426</ele>
        <time>2019-05-24T14:06:41.389Z</time>
      </trkpt>
      <trkpt lat="45.41537" lon="5.68515">
        <ele>642.680176</ele>
        <time>2019-05-24T14:06:46.389Z</time>
      </trkpt>
      <trkpt lat="45.4153" lon="5.68504">
        <ele>639.11084</ele>
        <time>2019-05-24T14:07:08.389Z</time>
      </trkpt>
      <trkpt lat="45.41506" lon="5.68478">
        <ele>636.833252</ele>
        <time>2019-05-24T14:07:13.389Z</time>
      </trkpt>
      <trkpt lat="45.41483" lon="5.68458">
        <ele>628.140137</ele>
        <time>2019-05-24T14:07:18.390Z</time>
      </trkpt>
      <trkpt lat="45.4146" lon="5.68412">
        <ele>628.285889</ele>
        <time>2019-05-24T14:07:23.390Z</time>
      </trkpt>
      <trkpt lat="45.41446" lon="5.6839">
        <ele>630.982178</ele>
        <time>2019-05-24T14:07:28.396Z</time>
      </trkpt>
      <trkpt lat="45.41438" lon="5.68377">
        <ele>627.741455</ele>
        <time>2019-05-24T14:07:33.743Z</time>
      </trkpt>
      <trkpt lat="45.41439" lon="5.68373">
        <ele>630.493164</ele>
        <time>2019-05-24T14:08:06.397Z</time>
      </trkpt>
      <trkpt lat="45.41435" lon="5.68365">
        <ele>629.593018</ele>
        <time>2019-05-24T14:08:11.397Z</time>
      </trkpt>
      <trkpt lat="45.41437" lon="5.68356">
        <ele>630.12793</ele>
        <time>2019-05-24T14:08:26.703Z</time>
      </trkpt>
      <trkpt lat="45.41436" lon="5.68349">
        <ele>630.085693</ele>
        <time>2019-05-24T14:08:31.753Z</time>
      </trkpt>
      <trkpt lat="45.41435" lon="5.68341">
        <ele>627.748291</ele>
        <time>2019-05-24T14:08:36.786Z</time>
      </trkpt>
      <trkpt lat="45.41431" lon="5.68331">
        <ele>627.882568</ele>
        <time>2019-05-24T14:08:41.848Z</time>
      </trkpt>
      <trkpt lat="45.41425" lon="5.68317">
        <ele>627.727905</ele>
        <time>2019-05-24T14:08:46.896Z</time>
      </trkpt>
      <trkpt lat="45.41415" lon="5.68297">
        <ele>628.050293</ele>
        <time>2019-05-24T14:08:51.947Z</time>
      </trkpt>
      <trkpt lat="45.41401" lon="5.68286">
        <ele>627.172119</ele>
        <time>2019-05-24T14:08:56.984Z</time>
      </trkpt>
      <trkpt lat="45.41392" lon="5.68301">
        <ele>627.47229</ele>
        <time>2019-05-24T14:09:02.068Z</time>
      </trkpt>
      <trkpt lat="45.41387" lon="5.68322">
        <ele>626.864136</ele>
        <time>2019-05-24T14:09:07.092Z</time>
      </trkpt>
      <trkpt lat="45.41388" lon="5.68344">
        <ele>628.511963</ele>
        <time>2019-05-24T14:09:12.159Z</time>
      </trkpt>
      <trkpt lat="45.41389" lon="5.68369">
        <ele>630.106567</ele>
        <time>2019-05-24T14:09:17.202Z</time>
      </trkpt>
      <trkpt lat="45.41388" lon="5.68392">
        <ele>631.997192</ele>
        <time>2019-05-24T14:09:22.272Z</time>
      </trkpt>
      <trkpt lat="45.41385" lon="5.68416">
        <ele>635.710571</ele>
        <time>2019-05-24T14:09:27.343Z</time>
      </trkpt>
      <trkpt lat="45.41383" lon="5.68441">
        <ele>637.368164</ele>
        <time>2019-05-24T14:09:32.392Z</time>
      </trkpt>
      <trkpt lat="45.4138" lon="5.6847">
        <ele>639.746338</ele>
        <time>2019-05-24T14:09:37.394Z</time>
      </trkpt>
      <trkpt lat="45.41375" lon="5.68492">
        <ele>637.739868</ele>
        <time>2019-05-24T14:09:42.394Z</time>
      </trkpt>
      <trkpt lat="45.41372" lon="5.68513">
        <ele>642.539795</ele>
        <time>2019-05-24T14:09:47.398Z</time>
      </trkpt>
      <trkpt lat="45.4137" lon="5.68534">
        <ele>642.364014</ele>
        <time>2019-05-24T14:09:52.398Z</time>
      </trkpt>
      <trkpt lat="45.4137" lon="5.68551">
        <ele>639.736816</ele>
        <time>2019-05-24T14:09:57.398Z</time>
      </trkpt>
      <trkpt lat="45.41363" lon="5.68563">
        <ele>640.699829</ele>
        <time>2019-05-24T14:10:02.398Z</time>
      </trkpt>
      <trkpt lat="45.41354" lon="5.68575">
        <ele>638.468262</ele>
        <time>2019-05-24T14:10:07.399Z</time>
      </trkpt>
      <trkpt lat="45.41343" lon="5.68588">
        <ele>638.445923</ele>
        <time>2019-05-24T14:10:12.399Z</time>
      </trkpt>
      <trkpt lat="45.41331" lon="5.68598">
        <ele>639.637207</ele>
        <time>2019-05-24T14:10:17.399Z</time>
      </trkpt>
      <trkpt lat="45.41325" lon="5.68603">
        <ele>643.689453</ele>
        <time>2019-05-24T14:10:57.393Z</time>
      </trkpt>
      <trkpt lat="45.41329" lon="5.686">
        <ele>642.860596</ele>
        <time>2019-05-24T14:11:02.399Z</time>
      </trkpt>
      <trkpt lat="45.41343" lon="5.68595">
        <ele>643.250488</ele>
        <time>2019-05-24T14:11:07.399Z</time>
      </trkpt>
      <trkpt lat="45.41355" lon="5.68585">
        <ele>643.098267</ele>
        <time>2019-05-24T14:11:12.399Z</time>
      </trkpt>
      <trkpt lat="45.41368" lon="5.68566">
        <ele>641.545654</ele>
        <time>2019-05-24T14:11:17.399Z</time>
      </trkpt>
      <trkpt lat="45.41375" lon="5.68539">
        <ele>637.80603</ele>
        <time>2019-05-24T14:11:22.399Z</time>
      </trkpt>
      <trkpt lat="45.41383" lon="5.68523">
        <ele>638.607788</ele>
        <time>2019-05-24T14:11:27.399Z</time>
      </trkpt>
      <trkpt lat="45.41391" lon="5.68512">
        <ele>638.441895</ele>
        <time>2019-05-24T14:11:32.399Z</time>
      </trkpt>
      <trkpt lat="45.41405" lon="5.68492">
        <ele>641.487793</ele>
        <time>2019-05-24T14:11:37.399Z</time>
      </trkpt>
      <trkpt lat="45.41416" lon="5.6848">
        <ele>640.205688</ele>
        <time>2019-05-24T14:11:42.399Z</time>
      </trkpt>
      <trkpt lat="45.41426" lon="5.68476">
        <ele>641.009888</ele>
        <time>2019-05-24T14:11:47.399Z</time>
      </trkpt>
      <trkpt lat="45.41439" lon="5.68464">
        <ele>640.540283</ele>
        <time>2019-05-24T14:11:52.402Z</time>
      </trkpt>
      <trkpt lat="45.41453" lon="5.6846">
        <ele>639.649658</ele>
        <time>2019-05-24T14:11:57.402Z</time>
      </trkpt>
      <trkpt lat="45.41466" lon="5.68465">
        <ele>638.193726</ele>
        <time>2019-05-24T14:12:02.402Z</time>
      </trkpt>
      <trkpt lat="45.41478" lon="5.68473">
        <ele>638.723877</ele>
        <time>2019-05-24T14:12:07.404Z</time>
      </trkpt>
      <trkpt lat="45.41491" lon="5.68481">
        <ele>637.352783</ele>
        <time>2019-05-24T14:12:12.406Z</time>
      </trkpt>
      <trkpt lat="45.41505" lon="5.68479">
        <ele>634.574219</ele>
        <time>2019-05-24T14:12:17.406Z</time>
      </trkpt>
      <trkpt lat="45.41519" lon="5.6849">
        <ele>635.709595</ele>
        <time>2019-05-24T14:12:22.406Z</time>
      </trkpt>
      <trkpt lat="45.41527" lon="5.68501">
        <ele>639.141602</ele>
        <time>2019-05-24T14:12:27.406Z</time>
      </trkpt>
      <trkpt lat="45.41534" lon="5.68508">
        <ele>641.172852</ele>
        <time>2019-05-24T14:12:32.406Z</time>
      </trkpt>
      <trkpt lat="45.41538" lon="5.68515">
        <ele>644.409912</ele>
        <time>2019-05-24T14:12:37.406Z</time>
      </trkpt>
      <trkpt lat="45.41542" lon="5.68525">
        <ele>645.273438</ele>
        <time>2019-05-24T14:12:42.406Z</time>
      </trkpt>
      <trkpt lat="45.41546" lon="5.68532">
        <ele>644.692139</ele>
        <time>2019-05-24T14:12:47.406Z</time>
      </trkpt>
      <trkpt lat="45.41548" lon="5.68538">
        <ele>646.417114</ele>
        <time>2019-05-24T14:14:02.398Z</time>
      </trkpt>
      <trkpt lat="45.41553" lon="5.68545">
        <ele>644.844727</ele>
        <time>2019-05-24T14:14:07.403Z</time>
      </trkpt>
      <trkpt lat="45.4156" lon="5.68556">
        <ele>647.352417</ele>
        <time>2019-05-24T14:14:12.403Z</time>
      </trkpt>
      <trkpt lat="45.41568" lon="5.68569">
        <ele>647.832275</ele>
        <time>2019-05-24T14:14:17.403Z</time>
      </trkpt>
      <trkpt lat="45.41573" lon="5.68592">
        <ele>646.578369</ele>
        <time>2019-05-24T14:14:22.403Z</time>
      </trkpt>
      <trkpt lat="45.41569" lon="5.68615">
        <ele>647.392456</ele>
        <time>2019-05-24T14:14:27.403Z</time>
      </trkpt>
      <trkpt lat="45.41565" lon="5.68634">
        <ele>645.453369</ele>
        <time>2019-05-24T14:14:32.403Z</time>
      </trkpt>
      <trkpt lat="45.4156" lon="5.68659">
        <ele>645.048828</ele>
        <time>2019-05-24T14:14:37.403Z</time>
      </trkpt>
      <trkpt lat="45.41553" lon="5.68685">
        <ele>642.237061</ele>
        <time>2019-05-24T14:14:42.403Z</time>
      </trkpt>
      <trkpt lat="45.41546" lon="5.68712">
        <ele>641.786377</ele>
        <time>2019-05-24T14:14:47.403Z</time>
      </trkpt>
      <trkpt lat="45.41539" lon="5.68739">
        <ele>641.847046</ele>
        <time>2019-05-24T14:14:52.403Z</time>
      </trkpt>
      <trkpt lat="45.41524" lon="5.68761">
        <ele>640.277588</ele>
        <time>2019-05-24T14:14:57.403Z</time>
      </trkpt>
      <trkpt lat="45.4151" lon="5.68779">
        <ele>641.40625</ele>
        <time>2019-05-24T14:15:02.403Z</time>
      </trkpt>
      <trkpt lat="45.41497" lon="5.68794">
        <ele>644.433105</ele>
        <time>2019-05-24T14:15:07.403Z</time>
      </trkpt>
      <trkpt lat="45.41483" lon="5.68816">
        <ele>643.020264</ele>
        <time>2019-05-24T14:15:12.403Z</time>
      </trkpt>
      <trkpt lat="45.41469" lon="5.68847">
        <ele>643.751221</ele>
        <time>2019-05-24T14:15:18.381Z</time>
      </trkpt>
      <trkpt lat="45.41461" lon="5.68875">
        <ele>645.720703</ele>
        <time>2019-05-24T14:15:23.384Z</time>
      </trkpt>
      <trkpt lat="45.4145" lon="5.68903">
        <ele>643.791504</ele>
        <time>2019-05-24T14:15:28.391Z</time>
      </trkpt>
      <trkpt lat="45.41436" lon="5.68928">
        <ele>640.90979</ele>
        <time>2019-05-24T14:15:33.394Z</time>
      </trkpt>
      <trkpt lat="45.41424" lon="5.68953">
        <ele>641.443359</ele>
        <time>2019-05-24T14:15:38.845Z</time>
      </trkpt>
      <trkpt lat="45.41415" lon="5.68985">
        <ele>643.521484</ele>
        <time>2019-05-24T14:15:43.917Z</time>
      </trkpt>
      <trkpt lat="45.41406" lon="5.69021">
        <ele>643.518066</ele>
        <time>2019-05-24T14:15:48.986Z</time>
      </trkpt>
      <trkpt lat="45.41398" lon="5.69058">
        <ele>642.374756</ele>
        <time>2019-05-24T14:15:54.025Z</time>
      </trkpt>
      <trkpt lat="45.41388" lon="5.69093">
        <ele>643.629395</ele>
        <time>2019-05-24T14:15:59.057Z</time>
      </trkpt>
      <trkpt lat="45.41381" lon="5.69121">
        <ele>643.303955</ele>
        <time>2019-05-24T14:16:04.085Z</time>
      </trkpt>
      <trkpt lat="45.4139" lon="5.69136">
        <ele>645.015137</ele>
        <time>2019-05-24T14:16:09.118Z</time>
      </trkpt>
      <trkpt lat="45.41404" lon="5.69141">
        <ele>644.414917</ele>
        <time>2019-05-24T14:16:14.161Z</time>
      </trkpt>
      <trkpt lat="45.4142" lon="5.69147">
        <ele>642.267456</ele>
        <time>2019-05-24T14:16:19.206Z</time>
      </trkpt>
      <trkpt lat="45.41434" lon="5.69152">
        <ele>643.775024</ele>
        <time>2019-05-24T14:16:24.262Z</time>
      </trkpt>
      <trkpt lat="45.41448" lon="5.69154">
        <ele>646.73877</ele>
        <time>2019-05-24T14:16:29.329Z</time>
      </trkpt>
      <trkpt lat="45.41462" lon="5.69169">
        <ele>634.517334</ele>
        <time>2019-05-24T14:16:34.370Z</time>
      </trkpt>
      <trkpt lat="45.41472" lon="5.69178">
        <ele>641.944946</ele>
        <time>2019-05-24T14:16:39.413Z</time>
      </trkpt>
      <trkpt lat="45.41483" lon="5.69187">
        <ele>639.351563</ele>
        <time>2019-05-24T14:16:44.413Z</time>
      </trkpt>
      <trkpt lat="45.41495" lon="5.69196">
        <ele>636.180298</ele>
        <time>2019-05-24T14:16:49.413Z</time>
      </trkpt>
      <trkpt lat="45.41509" lon="5.69207">
        <ele>636.133545</ele>
        <time>2019-05-24T14:16:54.413Z</time>
      </trkpt>
      <trkpt lat="45.41517" lon="5.69206">
        <ele>641.288818</ele>
        <time>2019-05-24T14:16:59.413Z</time>
      </trkpt>
      <trkpt lat="45.41523" lon="5.69202">
        <ele>637.063721</ele>
        <time>2019-05-24T14:17:04.413Z</time>
      </trkpt>
      <trkpt lat="45.41524" lon="5.69197">
        <ele>647.071289</ele>
        <time>2019-05-24T14:17:15.402Z</time>
      </trkpt>
      <trkpt lat="45.41527" lon="5.69197">
        <ele>646.193359</ele>
        <time>2019-05-24T14:17:21.390Z</time>
      </trkpt>
      <trkpt lat="45.4153" lon="5.69194">
        <ele>645.850586</ele>
        <time>2019-05-24T14:17:31.394Z</time>
      </trkpt>
      <trkpt lat="45.41528" lon="5.69188">
        <ele>648.9104</ele>
        <time>2019-05-24T14:17:36.405Z</time>
      </trkpt>
      <trkpt lat="45.41532" lon="5.69183">
        <ele>650.134644</ele>
        <time>2019-05-24T14:17:44.403Z</time>
      </trkpt>
      <trkpt lat="45.41538" lon="5.69181">
        <ele>652.386475</ele>
        <time>2019-05-24T14:17:50.290Z</time>
      </trkpt>
      <trkpt lat="45.41543" lon="5.69184">
        <ele>650.577881</ele>
        <time>2019-05-24T14:17:55.327Z</time>
      </trkpt>
      <trkpt lat="45.41551" lon="5.69193">
        <ele>650.598633</ele>
        <time>2019-05-24T14:18:00.364Z</time>
      </trkpt>
      <trkpt lat="45.4156" lon="5.69194">
        <ele>654.378418</ele>
        <time>2019-05-24T14:18:05.405Z</time>
      </trkpt>
      <trkpt lat="45.41567" lon="5.69192">
        <ele>652.871826</ele>
        <time>2019-05-24T14:18:10.451Z</time>
      </trkpt>
      <trkpt lat="45.41572" lon="5.69192">
        <ele>657.274414</ele>
        <time>2019-05-24T14:18:15.506Z</time>
      </trkpt>
      <trkpt lat="45.41579" lon="5.69192">
        <ele>656.370728</ele>
        <time>2019-05-24T14:18:20.571Z</time>
      </trkpt>
      <trkpt lat="45.41586" lon="5.69188">
        <ele>658.032593</ele>
        <time>2019-05-24T14:18:25.610Z</time>
      </trkpt>
      <trkpt lat="45.41594" lon="5.69192">
        <ele>659.726685</ele>
        <time>2019-05-24T14:18:30.674Z</time>
      </trkpt>
      <trkpt lat="45.41601" lon="5.69189">
        <ele>659.294678</ele>
        <time>2019-05-24T14:18:35.719Z</time>
      </trkpt>
      <trkpt lat="45.41599" lon="5.69189">
        <ele>664.259033</ele>
        <time>2019-05-24T14:18:44.391Z</time>
      </trkpt>
      <trkpt lat="45.41601" lon="5.69192">
        <ele>664.828491</ele>
        <time>2019-05-24T14:18:54.397Z</time>
      </trkpt>
      <trkpt lat="45.41605" lon="5.69192">
        <ele>664.603271</ele>
        <time>2019-05-24T14:19:02.392Z</time>
      </trkpt>
      <trkpt lat="45.41611" lon="5.69186">
        <ele>664.139893</ele>
        <time>2019-05-24T14:19:07.392Z</time>
      </trkpt>
      <trkpt lat="45.41618" lon="5.69186">
        <ele>664.375244</ele>
        <time>2019-05-24T14:19:12.392Z</time>
      </trkpt>
      <trkpt lat="45.41621" lon="5.69185">
        <ele>665.387695</ele>
        <time>2019-05-24T14:19:17.400Z</time>
      </trkpt>
      <trkpt lat="45.41628" lon="5.69187">
        <ele>665.581543</ele>
        <time>2019-05-24T14:19:22.411Z</time>
      </trkpt>
      <trkpt lat="45.41635" lon="5.69191">
        <ele>665.179321</ele>
        <time>2019-05-24T14:19:28.403Z</time>
      </trkpt>
      <trkpt lat="45.41638" lon="5.69196">
        <ele>662.758789</ele>
        <time>2019-05-24T14:19:33.403Z</time>
      </trkpt>
      <trkpt lat="45.41641" lon="5.69197">
        <ele>661.679932</ele>
        <time>2019-05-24T14:19:38.403Z</time>
      </trkpt>
      <trkpt lat="45.41645" lon="5.69196">
        <ele>662.288696</ele>
        <time>2019-05-24T14:19:43.403Z</time>
      </trkpt>
      <trkpt lat="45.41642" lon="5.6919">
        <ele>661.87915</ele>
        <time>2019-05-24T14:19:48.403Z</time>
      </trkpt>
      <trkpt lat="45.41645" lon="5.69191">
        <ele>660.232788</ele>
        <time>2019-05-24T14:19:53.403Z</time>
      </trkpt>
      <trkpt lat="45.41648" lon="5.69198">
        <ele>659.450195</ele>
        <time>2019-05-24T14:20:13.401Z</time>
      </trkpt>
      <trkpt lat="45.41648" lon="5.69194">
        <ele>659.449951</ele>
        <time>2019-05-24T14:20:18.401Z</time>
      </trkpt>
      <trkpt lat="45.41648" lon="5.69188">
        <ele>667.740479</ele>
        <time>2019-05-24T14:20:24.402Z</time>
      </trkpt>
      <trkpt lat="45.4165" lon="5.69181">
        <ele>670.071533</ele>
        <time>2019-05-24T14:20:29.402Z</time>
      </trkpt>
      <trkpt lat="45.41652" lon="5.69172">
        <ele>670.912476</ele>
        <time>2019-05-24T14:20:34.402Z</time>
      </trkpt>
      <trkpt lat="45.41655" lon="5.69163">
        <ele>671.227295</ele>
        <time>2019-05-24T14:20:39.402Z</time>
      </trkpt>
      <trkpt lat="45.41657" lon="5.69153">
        <ele>671.513428</ele>
        <time>2019-05-24T14:20:44.413Z</time>
      </trkpt>
      <trkpt lat="45.4166" lon="5.69144">
        <ele>672.23999</ele>
        <time>2019-05-24T14:20:49.413Z</time>
      </trkpt>
      <trkpt lat="45.4166" lon="5.69131">
        <ele>673.996826</ele>
        <time>2019-05-24T14:20:54.413Z</time>
      </trkpt>
      <trkpt lat="45.41664" lon="5.69124">
        <ele>674.960205</ele>
        <time>2019-05-24T14:20:59.413Z</time>
      </trkpt>
      <trkpt lat="45.41666" lon="5.69111">
        <ele>678.427734</ele>
        <time>2019-05-24T14:21:04.413Z</time>
      </trkpt>
      <trkpt lat="45.41666" lon="5.69097">
        <ele>679.5</ele>
        <time>2019-05-24T14:21:09.413Z</time>
      </trkpt>
      <trkpt lat="45.41666" lon="5.69087">
        <ele>680.490479</ele>
        <time>2019-05-24T14:21:14.413Z</time>
      </trkpt>
      <trkpt lat="45.41665" lon="5.69075">
        <ele>681.08252</ele>
        <time>2019-05-24T14:21:19.413Z</time>
      </trkpt>
      <trkpt lat="45.41659" lon="5.69066">
        <ele>678.89917</ele>
        <time>2019-05-24T14:21:24.413Z</time>
      </trkpt>
      <trkpt lat="45.41653" lon="5.69057">
        <ele>676.400635</ele>
        <time>2019-05-24T14:21:29.413Z</time>
      </trkpt>
      <trkpt lat="45.41648" lon="5.69046">
        <ele>676.718262</ele>
        <time>2019-05-24T14:21:34.413Z</time>
      </trkpt>
      <trkpt lat="45.41641" lon="5.69037">
        <ele>674.146606</ele>
        <time>2019-05-24T14:21:39.413Z</time>
      </trkpt>
      <trkpt lat="45.41634" lon="5.69028">
        <ele>672.269165</ele>
        <time>2019-05-24T14:21:44.413Z</time>
      </trkpt>
      <trkpt lat="45.41627" lon="5.69016">
        <ele>670.110107</ele>
        <time>2019-05-24T14:21:49.413Z</time>
      </trkpt>
      <trkpt lat="45.41626" lon="5.69">
        <ele>669.405029</ele>
        <time>2019-05-24T14:21:54.413Z</time>
      </trkpt>
      <trkpt lat="45.4163" lon="5.68985">
        <ele>669.572266</ele>
        <time>2019-05-24T14:21:59.413Z</time>
      </trkpt>
      <trkpt lat="45.41632" lon="5.6898">
        <ele>675.489258</ele>
        <time>2019-05-24T14:22:05.398Z</time>
      </trkpt>
      <trkpt lat="45.41631" lon="5.68975">
        <ele>674.571045</ele>
        <time>2019-05-24T14:22:18.450Z</time>
      </trkpt>
      <trkpt lat="45.4163" lon="5.68973">
        <ele>674.513306</ele>
        <time>2019-05-24T14:22:26.391Z</time>
      </trkpt>
      <trkpt lat="45.4163" lon="5.6896">
        <ele>674.946289</ele>
        <time>2019-05-24T14:22:31.400Z</time>
      </trkpt>
      <trkpt lat="45.41631" lon="5.68946">
        <ele>675.758789</ele>
        <time>2019-05-24T14:22:36.400Z</time>
      </trkpt>
      <trkpt lat="45.41632" lon="5.68929">
        <ele>674.935303</ele>
        <time>2019-05-24T14:22:41.400Z</time>
      </trkpt>
      <trkpt lat="45.41641" lon="5.68919">
        <ele>675.67334</ele>
        <time>2019-05-24T14:22:46.402Z</time>
      </trkpt>
      <trkpt lat="45.4165" lon="5.68918">
        <ele>677.67627</ele>
        <time>2019-05-24T14:22:51.406Z</time>
      </trkpt>
      <trkpt lat="45.41656" lon="5.68921">
        <ele>680.027832</ele>
        <time>2019-05-24T14:22:58.790Z</time>
      </trkpt>
      <trkpt lat="45.41659" lon="5.6892">
        <ele>681.462158</ele>
        <time>2019-05-24T14:23:03.855Z</time>
      </trkpt>
      <trkpt lat="45.41663" lon="5.68921">
        <ele>681.309448</ele>
        <time>2019-05-24T14:23:08.914Z</time>
      </trkpt>
      <trkpt lat="45.41669" lon="5.68925">
        <ele>681.770996</ele>
        <time>2019-05-24T14:23:13.977Z</time>
      </trkpt>
      <trkpt lat="45.41674" lon="5.68928">
        <ele>680.545288</ele>
        <time>2019-05-24T14:23:19.406Z</time>
      </trkpt>
      <trkpt lat="45.41676" lon="5.68928">
        <ele>680.550293</ele>
        <time>2019-05-24T14:23:29.318Z</time>
      </trkpt>
      <trkpt lat="45.41685" lon="5.6893">
        <ele>681.012451</ele>
        <time>2019-05-24T14:23:34.380Z</time>
      </trkpt>
      <trkpt lat="45.41696" lon="5.68935">
        <ele>680.82251</ele>
        <time>2019-05-24T14:23:39.406Z</time>
      </trkpt>
      <trkpt lat="45.41702" lon="5.68941">
        <ele>680.923828</ele>
        <time>2019-05-24T14:23:44.406Z</time>
      </trkpt>
      <trkpt lat="45.41706" lon="5.68946">
        <ele>680.854004</ele>
        <time>2019-05-24T14:23:49.406Z</time>
      </trkpt>
      <trkpt lat="45.41711" lon="5.6895">
        <ele>683.762085</ele>
        <time>2019-05-24T14:23:54.554Z</time>
      </trkpt>
      <trkpt lat="45.41715" lon="5.68949">
        <ele>684.085205</ele>
        <time>2019-05-24T14:23:59.637Z</time>
      </trkpt>
      <trkpt lat="45.41723" lon="5.68952">
        <ele>682.755615</ele>
        <time>2019-05-24T14:24:04.664Z</time>
      </trkpt>
      <trkpt lat="45.41736" lon="5.68957">
        <ele>679.874756</ele>
        <time>2019-05-24T14:24:09.720Z</time>
      </trkpt>
      <trkpt lat="45.41751" lon="5.68976">
        <ele>677.479736</ele>
        <time>2019-05-24T14:24:14.751Z</time>
      </trkpt>
      <trkpt lat="45.41757" lon="5.68978">
        <ele>679.406982</ele>
        <time>2019-05-24T14:24:19.792Z</time>
      </trkpt>
      <trkpt lat="45.41766" lon="5.68982">
        <ele>681.269653</ele>
        <time>2019-05-24T14:24:24.963Z</time>
      </trkpt>
      <trkpt lat="45.41776" lon="5.68989">
        <ele>681.874268</ele>
        <time>2019-05-24T14:24:30.029Z</time>
      </trkpt>
      <trkpt lat="45.41786" lon="5.68994">
        <ele>680.851807</ele>
        <time>2019-05-24T14:24:35.094Z</time>
      </trkpt>
      <trkpt lat="45.41794" lon="5.69004">
        <ele>680.920654</ele>
        <time>2019-05-24T14:24:40.149Z</time>
      </trkpt>
      <trkpt lat="45.41804" lon="5.6901">
        <ele>682.285645</ele>
        <time>2019-05-24T14:24:45.212Z</time>
      </trkpt>
      <trkpt lat="45.41817" lon="5.69019">
        <ele>683.633545</ele>
        <time>2019-05-24T14:24:50.265Z</time>
      </trkpt>
      <trkpt lat="45.41818" lon="5.69032">
        <ele>684.513062</ele>
        <time>2019-05-24T14:24:55.316Z</time>
      </trkpt>
      <trkpt lat="45.41821" lon="5.69038">
        <ele>686.40686</ele>
        <time>2019-05-24T14:25:00.343Z</time>
      </trkpt>
      <trkpt lat="45.41827" lon="5.69039">
        <ele>687.50354</ele>
        <time>2019-05-24T14:25:05.388Z</time>
      </trkpt>
      <trkpt lat="45.41836" lon="5.69047">
        <ele>687.347778</ele>
        <time>2019-05-24T14:25:10.390Z</time>
      </trkpt>
      <trkpt lat="45.41843" lon="5.69055">
        <ele>687.404175</ele>
        <time>2019-05-24T14:25:15.390Z</time>
      </trkpt>
      <trkpt lat="45.41845" lon="5.69063">
        <ele>686.134033</ele>
        <time>2019-05-24T14:25:22.388Z</time>
      </trkpt>
      <trkpt lat="45.41848" lon="5.69067">
        <ele>687.15979</ele>
        <time>2019-05-24T14:25:27.394Z</time>
      </trkpt>
      <trkpt lat="45.41851" lon="5.69072">
        <ele>689.762939</ele>
        <time>2019-05-24T14:25:32.398Z</time>
      </trkpt>
      <trkpt lat="45.41855" lon="5.69079">
        <ele>690.299561</ele>
        <time>2019-05-24T14:25:38.421Z</time>
      </trkpt>
      <trkpt lat="45.41858" lon="5.69083">
        <ele>692.515015</ele>
        <time>2019-05-24T14:25:43.459Z</time>
      </trkpt>
      <trkpt lat="45.41859" lon="5.69088">
        <ele>693.356445</ele>
        <time>2019-05-24T14:25:48.515Z</time>
      </trkpt>
      <trkpt lat="45.41862" lon="5.69094">
        <ele>693.138428</ele>
        <time>2019-05-24T14:25:53.560Z</time>
      </trkpt>
      <trkpt lat="45.41862" lon="5.69102">
        <ele>691.399414</ele>
        <time>2019-05-24T14:26:08.757Z</time>
      </trkpt>
      <trkpt lat="45.41865" lon="5.69105">
        <ele>692.978394</ele>
        <time>2019-05-24T14:26:13.819Z</time>
      </trkpt>
      <trkpt lat="45.41871" lon="5.69114">
        <ele>696.990234</ele>
        <time>2019-05-24T14:26:18.887Z</time>
      </trkpt>
      <trkpt lat="45.41873" lon="5.69118">
        <ele>699.01123</ele>
        <time>2019-05-24T14:26:23.930Z</time>
      </trkpt>
      <trkpt lat="45.41878" lon="5.69123">
        <ele>695.12561</ele>
        <time>2019-05-24T14:26:29.020Z</time>
      </trkpt>
      <trkpt lat="45.41881" lon="5.6913">
        <ele>696.130737</ele>
        <time>2019-05-24T14:26:34.077Z</time>
      </trkpt>
      <trkpt lat="45.41884" lon="5.69137">
        <ele>696.502686</ele>
        <time>2019-05-24T14:26:39.107Z</time>
      </trkpt>
      <trkpt lat="45.41889" lon="5.69144">
        <ele>697.348145</ele>
        <time>2019-05-24T14:26:44.137Z</time>
      </trkpt>
      <trkpt lat="45.41893" lon="5.6915">
        <ele>697.032104</ele>
        <time>2019-05-24T14:26:49.199Z</time>
      </trkpt>
      <trkpt lat="45.41896" lon="5.69157">
        <ele>698.912354</ele>
        <time>2019-05-24T14:26:54.254Z</time>
      </trkpt>
      <trkpt lat="45.41901" lon="5.69167">
        <ele>699.899902</ele>
        <time>2019-05-24T14:26:59.311Z</time>
      </trkpt>
      <trkpt lat="45.41904" lon="5.69169">
        <ele>700.485352</ele>
        <time>2019-05-24T14:27:09.427Z</time>
      </trkpt>
      <trkpt lat="45.41906" lon="5.69174">
        <ele>702.383301</ele>
        <time>2019-05-24T14:27:14.427Z</time>
      </trkpt>
      <trkpt lat="45.41907" lon="5.69179">
        <ele>705.697754</ele>
        <time>2019-05-24T14:27:19.535Z</time>
      </trkpt>
      <trkpt lat="45.41908" lon="5.69183">
        <ele>705</ele>
        <time>2019-05-24T14:27:24.580Z</time>
      </trkpt>
      <trkpt lat="45.4191" lon="5.69185">
        <ele>707.005127</ele>
        <time>2019-05-24T14:27:37.396Z</time>
      </trkpt>
      <trkpt lat="45.41912" lon="5.69189">
        <ele>708.028809</ele>
        <time>2019-05-24T14:27:42.396Z</time>
      </trkpt>
      <trkpt lat="45.41913" lon="5.69193">
        <ele>710.39917</ele>
        <time>2019-05-24T14:27:47.398Z</time>
      </trkpt>
      <trkpt lat="45.41913" lon="5.69199">
        <ele>708.74585</ele>
        <time>2019-05-24T14:28:10.395Z</time>
      </trkpt>
      <trkpt lat="45.41914" lon="5.69211">
        <ele>710.074707</ele>
        <time>2019-05-24T14:28:15.395Z</time>
      </trkpt>
      <trkpt lat="45.41912" lon="5.69223">
        <ele>708.508911</ele>
        <time>2019-05-24T14:28:20.402Z</time>
      </trkpt>
      <trkpt lat="45.4192" lon="5.69241">
        <ele>710.050903</ele>
        <time>2019-05-24T14:28:25.402Z</time>
      </trkpt>
      <trkpt lat="45.41935" lon="5.69256">
        <ele>710.02002</ele>
        <time>2019-05-24T14:28:30.402Z</time>
      </trkpt>
      <trkpt lat="45.41947" lon="5.69264">
        <ele>709.625366</ele>
        <time>2019-05-24T14:28:35.410Z</time>
      </trkpt>
      <trkpt lat="45.41957" lon="5.69273">
        <ele>710.95166</ele>
        <time>2019-05-24T14:28:40.410Z</time>
      </trkpt>
      <trkpt lat="45.41963" lon="5.69279">
        <ele>711.731079</ele>
        <time>2019-05-24T14:28:45.410Z</time>
      </trkpt>
      <trkpt lat="45.41967" lon="5.6929">
        <ele>714.29126</ele>
        <time>2019-05-24T14:28:50.410Z</time>
      </trkpt>
      <trkpt lat="45.41976" lon="5.69292">
        <ele>711.822876</ele>
        <time>2019-05-24T14:28:55.410Z</time>
      </trkpt>
      <trkpt lat="45.41989" lon="5.69294">
        <ele>714.682129</ele>
        <time>2019-05-24T14:29:00.410Z</time>
      </trkpt>
      <trkpt lat="45.41984" lon="5.6932">
        <ele>715.162109</ele>
        <time>2019-05-24T14:29:05.410Z</time>
      </trkpt>
      <trkpt lat="45.41987" lon="5.69344">
        <ele>710.935547</ele>
        <time>2019-05-24T14:29:10.410Z</time>
      </trkpt>
      <trkpt lat="45.42008" lon="5.69361">
        <ele>711.642822</ele>
        <time>2019-05-24T14:29:15.411Z</time>
      </trkpt>
      <trkpt lat="45.4203" lon="5.69379">
        <ele>708.501709</ele>
        <time>2019-05-24T14:29:20.411Z</time>
      </trkpt>
      <trkpt lat="45.42047" lon="5.69395">
        <ele>710.685547</ele>
        <time>2019-05-24T14:29:25.411Z</time>
      </trkpt>
      <trkpt lat="45.42056" lon="5.69391">
        <ele>708.059814</ele>
        <time>2019-05-24T14:29:30.411Z</time>
      </trkpt>
      <trkpt lat="45.42065" lon="5.69408">
        <ele>709.647705</ele>
        <time>2019-05-24T14:29:35.411Z</time>
      </trkpt>
      <trkpt lat="45.42078" lon="5.69426">
        <ele>712.231567</ele>
        <time>2019-05-24T14:29:40.411Z</time>
      </trkpt>
      <trkpt lat="45.42089" lon="5.69448">
        <ele>708.861694</ele>
        <time>2019-05-24T14:29:45.411Z</time>
      </trkpt>
      <trkpt lat="45.42098" lon="5.69469">
        <ele>709.369629</ele>
        <time>2019-05-24T14:29:50.411Z</time>
      </trkpt>
      <trkpt lat="45.42099" lon="5.69485">
        <ele>707.489746</ele>
        <time>2019-05-24T14:29:55.411Z</time>
      </trkpt>
      <trkpt lat="45.4211" lon="5.69489">
        <ele>707.817261</ele>
        <time>2019-05-24T14:30:00.430Z</time>
      </trkpt>
      <trkpt lat="45.42118" lon="5.69505">
        <ele>704.954224</ele>
        <time>2019-05-24T14:30:05.430Z</time>
      </trkpt>
      <trkpt lat="45.42127" lon="5.69513">
        <ele>707.789551</ele>
        <time>2019-05-24T14:30:10.430Z</time>
      </trkpt>
      <trkpt lat="45.4214" lon="5.69526">
        <ele>705.215576</ele>
        <time>2019-05-24T14:30:16.400Z</time>
      </trkpt>
      <trkpt lat="45.4215" lon="5.69538">
        <ele>703.025269</ele>
        <time>2019-05-24T14:30:21.407Z</time>
      </trkpt>
      <trkpt lat="45.4216" lon="5.69557">
        <ele>696.763428</ele>
        <time>2019-05-24T14:30:26.407Z</time>
      </trkpt>
      <trkpt lat="45.42167" lon="5.69576">
        <ele>700.880859</ele>
        <time>2019-05-24T14:30:31.407Z</time>
      </trkpt>
      <trkpt lat="45.42178" lon="5.69589">
        <ele>704.118896</ele>
        <time>2019-05-24T14:30:36.407Z</time>
      </trkpt>
      <trkpt lat="45.42182" lon="5.696">
        <ele>705.67981</ele>
        <time>2019-05-24T14:30:41.407Z</time>
      </trkpt>
      <trkpt lat="45.42188" lon="5.69613">
        <ele>705.876953</ele>
        <time>2019-05-24T14:30:46.407Z</time>
      </trkpt>
      <trkpt lat="45.42193" lon="5.69633">
        <ele>702.257813</ele>
        <time>2019-05-24T14:30:51.407Z</time>
      </trkpt>
      <trkpt lat="45.42199" lon="5.69648">
        <ele>701.657349</ele>
        <time>2019-05-24T14:30:56.407Z</time>
      </trkpt>
      <trkpt lat="45.42206" lon="5.69671">
        <ele>701.869385</ele>
        <time>2019-05-24T14:31:01.407Z</time>
      </trkpt>
      <trkpt lat="45.42232" lon="5.69698">
        <ele>696.863159</ele>
        <time>2019-05-24T14:31:06.407Z</time>
      </trkpt>
      <trkpt lat="45.42248" lon="5.69728">
        <ele>695.612061</ele>
        <time>2019-05-24T14:31:11.407Z</time>
      </trkpt>
      <trkpt lat="45.42261" lon="5.69746">
        <ele>694.656982</ele>
        <time>2019-05-24T14:31:16.407Z</time>
      </trkpt>
      <trkpt lat="45.4227" lon="5.69759">
        <ele>696.346191</ele>
        <time>2019-05-24T14:31:21.407Z</time>
      </trkpt>
      <trkpt lat="45.42278" lon="5.69778">
        <ele>696.479004</ele>
        <time>2019-05-24T14:31:26.407Z</time>
      </trkpt>
      <trkpt lat="45.42286" lon="5.69801">
        <ele>699.204102</ele>
        <time>2019-05-24T14:31:35.396Z</time>
      </trkpt>
      <trkpt lat="45.42292" lon="5.69813">
        <ele>698.0354</ele>
        <time>2019-05-24T14:31:40.396Z</time>
      </trkpt>
      <trkpt lat="45.42294" lon="5.69822">
        <ele>693.73938</ele>
        <time>2019-05-24T14:31:49.390Z</time>
      </trkpt>
      <trkpt lat="45.42297" lon="5.6983">
        <ele>694.410645</ele>
        <time>2019-05-24T14:31:54.391Z</time>
      </trkpt>
      <trkpt lat="45.42301" lon="5.69836">
        <ele>694.504883</ele>
        <time>2019-05-24T14:32:00.352Z</time>
      </trkpt>
      <trkpt lat="45.42303" lon="5.69842">
        <ele>692.972534</ele>
        <time>2019-05-24T14:32:05.401Z</time>
      </trkpt>
      <trkpt lat="45.42306" lon="5.69851">
        <ele>696.297119</ele>
        <time>2019-05-24T14:32:10.401Z</time>
      </trkpt>
      <trkpt lat="45.42314" lon="5.69862">
        <ele>695.092651</ele>
        <time>2019-05-24T14:32:15.401Z</time>
      </trkpt>
      <trkpt lat="45.4232" lon="5.69873">
        <ele>694.572021</ele>
        <time>2019-05-24T14:32:20.401Z</time>
      </trkpt>
      <trkpt lat="45.42321" lon="5.69876">
        <ele>697.994263</ele>
        <time>2019-05-24T14:32:33.326Z</time>
      </trkpt>
      <trkpt lat="45.42327" lon="5.69879">
        <ele>699.28125</ele>
        <time>2019-05-24T14:32:39.402Z</time>
      </trkpt>
      <trkpt lat="45.42329" lon="5.69881">
        <ele>703.504883</ele>
        <time>2019-05-24T14:32:44.405Z</time>
      </trkpt>
      <trkpt lat="45.42332" lon="5.69881">
        <ele>703.061035</ele>
        <time>2019-05-24T14:32:50.408Z</time>
      </trkpt>
      <trkpt lat="45.42334" lon="5.69882">
        <ele>703.344238</ele>
        <time>2019-05-24T14:32:55.408Z</time>
      </trkpt>
      <trkpt lat="45.42337" lon="5.69882">
        <ele>702.977417</ele>
        <time>2019-05-24T14:33:02.393Z</time>
      </trkpt>
      <trkpt lat="45.4234" lon="5.69885">
        <ele>703.089966</ele>
        <time>2019-05-24T14:33:07.406Z</time>
      </trkpt>
      <trkpt lat="45.42345" lon="5.69889">
        <ele>704.840088</ele>
        <time>2019-05-24T14:33:12.406Z</time>
      </trkpt>
      <trkpt lat="45.42351" lon="5.69892">
        <ele>705.06958</ele>
        <time>2019-05-24T14:33:17.406Z</time>
      </trkpt>
      <trkpt lat="45.42354" lon="5.69894">
        <ele>705.75708</ele>
        <time>2019-05-24T14:33:22.408Z</time>
      </trkpt>
      <trkpt lat="45.42355" lon="5.69895">
        <ele>706.071777</ele>
        <time>2019-05-24T14:33:34.126Z</time>
      </trkpt>
      <trkpt lat="45.42361" lon="5.69897">
        <ele>702.925781</ele>
        <time>2019-05-24T14:33:39.167Z</time>
      </trkpt>
      <trkpt lat="45.4237" lon="5.69903">
        <ele>704.843384</ele>
        <time>2019-05-24T14:33:44.214Z</time>
      </trkpt>
      <trkpt lat="45.42374" lon="5.69905">
        <ele>704.578979</ele>
        <time>2019-05-24T14:33:50.391Z</time>
      </trkpt>
      <trkpt lat="45.42375" lon="5.69913">
        <ele>706.772217</ele>
        <time>2019-05-24T14:34:04.441Z</time>
      </trkpt>
      <trkpt lat="45.42381" lon="5.69922">
        <ele>705.513916</ele>
        <time>2019-05-24T14:34:09.487Z</time>
      </trkpt>
      <trkpt lat="45.42387" lon="5.6994">
        <ele>702.552979</ele>
        <time>2019-05-24T14:34:14.535Z</time>
      </trkpt>
      <trkpt lat="45.42395" lon="5.69948">
        <ele>702.022339</ele>
        <time>2019-05-24T14:34:19.581Z</time>
      </trkpt>
      <trkpt lat="45.42401" lon="5.69952">
        <ele>700.619629</ele>
        <time>2019-05-24T14:34:24.627Z</time>
      </trkpt>
      <trkpt lat="45.424" lon="5.69966">
        <ele>699.84436</ele>
        <time>2019-05-24T14:34:29.657Z</time>
      </trkpt>
      <trkpt lat="45.42411" lon="5.69977">
        <ele>702.514893</ele>
        <time>2019-05-24T14:34:34.887Z</time>
      </trkpt>
      <trkpt lat="45.42423" lon="5.69989">
        <ele>701.708008</ele>
        <time>2019-05-24T14:34:39.989Z</time>
      </trkpt>
      <trkpt lat="45.4243" lon="5.70002">
        <ele>703.017944</ele>
        <time>2019-05-24T14:34:45.036Z</time>
      </trkpt>
      <trkpt lat="45.42438" lon="5.70011">
        <ele>701.33667</ele>
        <time>2019-05-24T14:34:50.094Z</time>
      </trkpt>
      <trkpt lat="45.42447" lon="5.70026">
        <ele>701.624512</ele>
        <time>2019-05-24T14:34:55.129Z</time>
      </trkpt>
      <trkpt lat="45.42449" lon="5.7003">
        <ele>701.781616</ele>
        <time>2019-05-24T14:35:00.175Z</time>
      </trkpt>
      <trkpt lat="45.42452" lon="5.70037">
        <ele>702.36499</ele>
        <time>2019-05-24T14:35:05.228Z</time>
      </trkpt>
      <trkpt lat="45.42454" lon="5.70038">
        <ele>705.27124</ele>
        <time>2019-05-24T14:35:10.287Z</time>
      </trkpt>
      <trkpt lat="45.42455" lon="5.70051">
        <ele>704.221313</ele>
        <time>2019-05-24T14:35:15.329Z</time>
      </trkpt>
      <trkpt lat="45.42459" lon="5.70076">
        <ele>699.326172</ele>
        <time>2019-05-24T14:35:20.389Z</time>
      </trkpt>
      <trkpt lat="45.42453" lon="5.70118">
        <ele>692.35376</ele>
        <time>2019-05-24T14:35:25.409Z</time>
      </trkpt>
      <trkpt lat="45.42451" lon="5.70126">
        <ele>689.134399</ele>
        <time>2019-05-24T14:35:33.382Z</time>
      </trkpt>
      <trkpt lat="45.42455" lon="5.70132">
        <ele>689.058105</ele>
        <time>2019-05-24T14:35:38.382Z</time>
      </trkpt>
      <trkpt lat="45.42457" lon="5.70134">
        <ele>690.578369</ele>
        <time>2019-05-24T14:36:05.396Z</time>
      </trkpt>
      <trkpt lat="45.42463" lon="5.70137">
        <ele>688.766724</ele>
        <time>2019-05-24T14:36:10.405Z</time>
      </trkpt>
      <trkpt lat="45.42472" lon="5.70141">
        <ele>688.181152</ele>
        <time>2019-05-24T14:36:15.421Z</time>
      </trkpt>
      <trkpt lat="45.4248" lon="5.70146">
        <ele>689.943848</ele>
        <time>2019-05-24T14:36:20.421Z</time>
      </trkpt>
      <trkpt lat="45.42488" lon="5.7015">
        <ele>687.862549</ele>
        <time>2019-05-24T14:36:25.421Z</time>
      </trkpt>
      <trkpt lat="45.42492" lon="5.70152">
        <ele>688.954834</ele>
        <time>2019-05-24T14:36:31.286Z</time>
      </trkpt>
      <trkpt lat="45.42499" lon="5.70157">
        <ele>690.156006</ele>
        <time>2019-05-24T14:36:36.334Z</time>
      </trkpt>
      <trkpt lat="45.42503" lon="5.7016">
        <ele>690.059814</ele>
        <time>2019-05-24T14:36:41.573Z</time>
      </trkpt>
      <trkpt lat="45.42506" lon="5.7016">
        <ele>691.888306</ele>
        <time>2019-05-24T14:36:46.628Z</time>
      </trkpt>
      <trkpt lat="45.42509" lon="5.70161">
        <ele>693.180908</ele>
        <time>2019-05-24T14:36:51.688Z</time>
      </trkpt>
      <trkpt lat="45.42514" lon="5.70164">
        <ele>693.135742</ele>
        <time>2019-05-24T14:36:56.723Z</time>
      </trkpt>
      <trkpt lat="45.42518" lon="5.70167">
        <ele>691.797119</ele>
        <time>2019-05-24T14:37:01.783Z</time>
      </trkpt>
      <trkpt lat="45.42522" lon="5.7017">
        <ele>692.128662</ele>
        <time>2019-05-24T14:37:06.837Z</time>
      </trkpt>
      <trkpt lat="45.42529" lon="5.70176">
        <ele>694.444214</ele>
        <time>2019-05-24T14:37:11.890Z</time>
      </trkpt>
      <trkpt lat="45.42537" lon="5.70185">
        <ele>694.27063</ele>
        <time>2019-05-24T14:37:16.967Z</time>
      </trkpt>
      <trkpt lat="45.42554" lon="5.70197">
        <ele>691.778809</ele>
        <time>2019-05-24T14:37:22.002Z</time>
      </trkpt>
      <trkpt lat="45.42564" lon="5.70203">
        <ele>691.898438</ele>
        <time>2019-05-24T14:37:27.047Z</time>
      </trkpt>
      <trkpt lat="45.42571" lon="5.70209">
        <ele>691.498779</ele>
        <time>2019-05-24T14:37:32.117Z</time>
      </trkpt>
      <trkpt lat="45.42582" lon="5.70217">
        <ele>693.523438</ele>
        <time>2019-05-24T14:37:37.162Z</time>
      </trkpt>
      <trkpt lat="45.42593" lon="5.70229">
        <ele>692.706299</ele>
        <time>2019-05-24T14:37:42.297Z</time>
      </trkpt>
      <trkpt lat="45.42605" lon="5.70239">
        <ele>694.342896</ele>
        <time>2019-05-24T14:37:47.376Z</time>
      </trkpt>
      <trkpt lat="45.42614" lon="5.70245">
        <ele>695.21167</ele>
        <time>2019-05-24T14:37:52.410Z</time>
      </trkpt>
      <trkpt lat="45.42624" lon="5.70246">
        <ele>695.984131</ele>
        <time>2019-05-24T14:37:57.410Z</time>
      </trkpt>
      <trkpt lat="45.42634" lon="5.70243">
        <ele>695.640137</ele>
        <time>2019-05-24T14:38:02.410Z</time>
      </trkpt>
      <trkpt lat="45.42643" lon="5.70244">
        <ele>696.278931</ele>
        <time>2019-05-24T14:38:07.410Z</time>
      </trkpt>
      <trkpt lat="45.42651" lon="5.70246">
        <ele>697.901489</ele>
        <time>2019-05-24T14:38:12.410Z</time>
      </trkpt>
      <trkpt lat="45.4266" lon="5.7025">
        <ele>699.176025</ele>
        <time>2019-05-24T14:38:17.410Z</time>
      </trkpt>
      <trkpt lat="45.42669" lon="5.70255">
        <ele>699.935059</ele>
        <time>2019-05-24T14:38:22.410Z</time>
      </trkpt>
      <trkpt lat="45.42677" lon="5.70262">
        <ele>698.386841</ele>
        <time>2019-05-24T14:38:27.410Z</time>
      </trkpt>
      <trkpt lat="45.42686" lon="5.70269">
        <ele>698.865967</ele>
        <time>2019-05-24T14:38:32.410Z</time>
      </trkpt>
      <trkpt lat="45.42692" lon="5.70278">
        <ele>698.987793</ele>
        <time>2019-05-24T14:38:37.410Z</time>
      </trkpt>
      <trkpt lat="45.427" lon="5.70283">
        <ele>698.448486</ele>
        <time>2019-05-24T14:38:42.410Z</time>
      </trkpt>
      <trkpt lat="45.42707" lon="5.70286">
        <ele>699.900146</ele>
        <time>2019-05-24T14:38:47.410Z</time>
      </trkpt>
      <trkpt lat="45.42714" lon="5.70287">
        <ele>702.677246</ele>
        <time>2019-05-24T14:38:52.410Z</time>
      </trkpt>
      <trkpt lat="45.42722" lon="5.70287">
        <ele>701.338135</ele>
        <time>2019-05-24T14:38:57.410Z</time>
      </trkpt>
      <trkpt lat="45.4273" lon="5.70292">
        <ele>702.068359</ele>
        <time>2019-05-24T14:39:02.410Z</time>
      </trkpt>
      <trkpt lat="45.42735" lon="5.70293">
        <ele>703.825439</ele>
        <time>2019-05-24T14:39:07.410Z</time>
      </trkpt>
      <trkpt lat="45.42735" lon="5.70289">
        <ele>704.80603</ele>
        <time>2019-05-24T14:39:13.326Z</time>
      </trkpt>
      <trkpt lat="45.42732" lon="5.70286">
        <ele>706.934082</ele>
        <time>2019-05-24T14:39:32.392Z</time>
      </trkpt>
      <trkpt lat="45.4273" lon="5.70279">
        <ele>708.062012</ele>
        <time>2019-05-24T14:39:37.404Z</time>
      </trkpt>
      <trkpt lat="45.42729" lon="5.70269">
        <ele>709.64624</ele>
        <time>2019-05-24T14:39:42.404Z</time>
      </trkpt>
      <trkpt lat="45.42724" lon="5.70262">
        <ele>709.926025</ele>
        <time>2019-05-24T14:39:47.404Z</time>
      </trkpt>
      <trkpt lat="45.42718" lon="5.70254">
        <ele>710.730713</ele>
        <time>2019-05-24T14:39:52.404Z</time>
      </trkpt>
      <trkpt lat="45.42713" lon="5.70245">
        <ele>711.467529</ele>
        <time>2019-05-24T14:39:57.404Z</time>
      </trkpt>
      <trkpt lat="45.42707" lon="5.70238">
        <ele>711.920166</ele>
        <time>2019-05-24T14:40:02.404Z</time>
      </trkpt>
      <trkpt lat="45.42703" lon="5.70228">
        <ele>712.649902</ele>
        <time>2019-05-24T14:40:07.415Z</time>
      </trkpt>
      <trkpt lat="45.42705" lon="5.70217">
        <ele>713.775146</ele>
        <time>2019-05-24T14:40:12.418Z</time>
      </trkpt>
      <trkpt lat="45.42712" lon="5.70214">
        <ele>715.973267</ele>
        <time>2019-05-24T14:40:17.426Z</time>
      </trkpt>
      <trkpt lat="45.4272" lon="5.70215">
        <ele>716.676758</ele>
        <time>2019-05-24T14:40:22.426Z</time>
      </trkpt>
      <trkpt lat="45.42726" lon="5.70216">
        <ele>716.622192</ele>
        <time>2019-05-24T14:40:27.426Z</time>
      </trkpt>
      <trkpt lat="45.42732" lon="5.70215">
        <ele>716.215332</ele>
        <time>2019-05-24T14:40:32.426Z</time>
      </trkpt>
      <trkpt lat="45.42738" lon="5.70217">
        <ele>716.80127</ele>
        <time>2019-05-24T14:40:37.426Z</time>
      </trkpt>
      <trkpt lat="45.42743" lon="5.70218">
        <ele>717.695679</ele>
        <time>2019-05-24T14:40:42.426Z</time>
      </trkpt>
      <trkpt lat="45.4275" lon="5.70218">
        <ele>716.717651</ele>
        <time>2019-05-24T14:40:47.426Z</time>
      </trkpt>
      <trkpt lat="45.42758" lon="5.70218">
        <ele>717.515137</ele>
        <time>2019-05-24T14:40:53.399Z</time>
      </trkpt>
      <trkpt lat="45.42765" lon="5.70218">
        <ele>718.407227</ele>
        <time>2019-05-24T14:40:58.403Z</time>
      </trkpt>
      <trkpt lat="45.42771" lon="5.70218">
        <ele>719.857422</ele>
        <time>2019-05-24T14:41:03.403Z</time>
      </trkpt>
      <trkpt lat="45.42779" lon="5.70219">
        <ele>718.791138</ele>
        <time>2019-05-24T14:41:08.403Z</time>
      </trkpt>
      <trkpt lat="45.42787" lon="5.70217">
        <ele>717.986084</ele>
        <time>2019-05-24T14:41:13.405Z</time>
      </trkpt>
      <trkpt lat="45.42794" lon="5.70214">
        <ele>717.59021</ele>
        <time>2019-05-24T14:41:18.405Z</time>
      </trkpt>
      <trkpt lat="45.42801" lon="5.70212">
        <ele>717.494751</ele>
        <time>2019-05-24T14:41:23.405Z</time>
      </trkpt>
      <trkpt lat="45.42808" lon="5.7021">
        <ele>717.931396</ele>
        <time>2019-05-24T14:41:28.405Z</time>
      </trkpt>
      <trkpt lat="45.42814" lon="5.70207">
        <ele>718.672363</ele>
        <time>2019-05-24T14:41:33.405Z</time>
      </trkpt>
      <trkpt lat="45.42823" lon="5.70201">
        <ele>720.68457</ele>
        <time>2019-05-24T14:41:38.405Z</time>
      </trkpt>
      <trkpt lat="45.42828" lon="5.70197">
        <ele>720.368408</ele>
        <time>2019-05-24T14:41:43.405Z</time>
      </trkpt>
      <trkpt lat="45.42832" lon="5.70195">
        <ele>721.338745</ele>
        <time>2019-05-24T14:41:48.405Z</time>
      </trkpt>
      <trkpt lat="45.42837" lon="5.70193">
        <ele>723.322144</ele>
        <time>2019-05-24T14:41:53.405Z</time>
      </trkpt>
      <trkpt lat="45.42842" lon="5.70189">
        <ele>725.292725</ele>
        <time>2019-05-24T14:41:58.405Z</time>
      </trkpt>
      <trkpt lat="45.42848" lon="5.70186">
        <ele>729.675293</ele>
        <time>2019-05-24T14:42:03.405Z</time>
      </trkpt>
      <trkpt lat="45.42855" lon="5.70183">
        <ele>731.768799</ele>
        <time>2019-05-24T14:42:08.405Z</time>
      </trkpt>
      <trkpt lat="45.42861" lon="5.70182">
        <ele>730.860107</ele>
        <time>2019-05-24T14:42:14.389Z</time>
      </trkpt>
      <trkpt lat="45.42869" lon="5.70183">
        <ele>731.391479</ele>
        <time>2019-05-24T14:42:19.391Z</time>
      </trkpt>
      <trkpt lat="45.42877" lon="5.70185">
        <ele>729.875977</ele>
        <time>2019-05-24T14:42:24.399Z</time>
      </trkpt>
      <trkpt lat="45.4289" lon="5.70188">
        <ele>732.088135</ele>
        <time>2019-05-24T14:42:29.399Z</time>
      </trkpt>
      <trkpt lat="45.42901" lon="5.70188">
        <ele>733.063232</ele>
        <time>2019-05-24T14:42:35.393Z</time>
      </trkpt>
      <trkpt lat="45.42906" lon="5.70186">
        <ele>735.737793</ele>
        <time>2019-05-24T14:42:40.393Z</time>
      </trkpt>
      <trkpt lat="45.4291" lon="5.70183">
        <ele>737.120972</ele>
        <time>2019-05-24T14:42:45.394Z</time>
      </trkpt>
      <trkpt lat="45.42915" lon="5.70178">
        <ele>738.593262</ele>
        <time>2019-05-24T14:42:50.400Z</time>
      </trkpt>
      <trkpt lat="45.42922" lon="5.70172">
        <ele>739.280029</ele>
        <time>2019-05-24T14:42:55.413Z</time>
      </trkpt>
      <trkpt lat="45.4293" lon="5.70165">
        <ele>740.804199</ele>
        <time>2019-05-24T14:43:00.413Z</time>
      </trkpt>
      <trkpt lat="45.42942" lon="5.70157">
        <ele>737.333374</ele>
        <time>2019-05-24T14:43:05.422Z</time>
      </trkpt>
      <trkpt lat="45.42949" lon="5.70148">
        <ele>740.367676</ele>
        <time>2019-05-24T14:43:10.422Z</time>
      </trkpt>
      <trkpt lat="45.42946" lon="5.70136">
        <ele>742.52832</ele>
        <time>2019-05-24T14:43:15.422Z</time>
      </trkpt>
      <trkpt lat="45.4294" lon="5.70127">
        <ele>742.807129</ele>
        <time>2019-05-24T14:43:20.422Z</time>
      </trkpt>
    </trkseg>
  </trk>
</gpx>